<?xml version="1.0" encoding="UTF-8" standalone="no" ?>
<gpx xmlns="http://www.topografix.com/GPX/1/1" xmlns:xsi="http://www.w3.org/2001/XMLSchema-instance" xsi:schemaLocation="http://www.topografix.com/GPX/1/1 http://www.topografix.com/GPX/1/1/gpx.xsd" version="1.1" creator="VisuGPX - https://www.visugpx.com">
  <metadata>
    <name>Super agglocityrun 17</name>
    <desc><![CDATA[Course au départ de la mairie d'Argonnay et au final sur la plage du lac d'Annecy!]]></desc>
  </metadata>
  <trk>
    <name><![CDATA[ONmove 220 - 26/03/2017]]></name>
    <trkseg>
      <trkpt lat="45.94487" lon="6.13952">
        <ele>537</ele>
        <time>2017-03-26T07:27:05Z</time>
      </trkpt>
      <trkpt lat="45.94492" lon="6.13969">
        <ele>538</ele>
        <time>2017-03-26T07:27:10Z</time>
      </trkpt>
      <trkpt lat="45.94484" lon="6.13992">
        <ele>539</ele>
        <time>2017-03-26T07:27:15Z</time>
      </trkpt>
      <trkpt lat="45.94471" lon="6.14006">
        <ele>538</ele>
        <time>2017-03-26T07:27:20Z</time>
      </trkpt>
      <trkpt lat="45.94463" lon="6.14029">
        <ele>538</ele>
        <time>2017-03-26T07:27:25Z</time>
      </trkpt>
      <trkpt lat="45.94462" lon="6.14059">
        <ele>540</ele>
        <time>2017-03-26T07:27:30Z</time>
      </trkpt>
      <trkpt lat="45.94453" lon="6.14088">
        <ele>539</ele>
        <time>2017-03-26T07:27:35Z</time>
      </trkpt>
      <trkpt lat="45.94431" lon="6.14103">
        <ele>537</ele>
        <time>2017-03-26T07:27:40Z</time>
      </trkpt>
      <trkpt lat="45.94409" lon="6.14111">
        <ele>534</ele>
        <time>2017-03-26T07:27:45Z</time>
      </trkpt>
      <trkpt lat="45.94389" lon="6.14119">
        <ele>531</ele>
        <time>2017-03-26T07:27:50Z</time>
      </trkpt>
      <trkpt lat="45.94368" lon="6.14131">
        <ele>529</ele>
        <time>2017-03-26T07:27:55Z</time>
      </trkpt>
      <trkpt lat="45.94352" lon="6.14153">
        <ele>527</ele>
        <time>2017-03-26T07:28:00Z</time>
      </trkpt>
      <trkpt lat="45.94343" lon="6.14183">
        <ele>526</ele>
        <time>2017-03-26T07:28:05Z</time>
      </trkpt>
      <trkpt lat="45.94326" lon="6.14203">
        <ele>524</ele>
        <time>2017-03-26T07:28:10Z</time>
      </trkpt>
      <trkpt lat="45.9431" lon="6.14222">
        <ele>522</ele>
        <time>2017-03-26T07:28:15Z</time>
      </trkpt>
      <trkpt lat="45.94297" lon="6.14246">
        <ele>521</ele>
        <time>2017-03-26T07:28:20Z</time>
      </trkpt>
      <trkpt lat="45.94293" lon="6.14273">
        <ele>521</ele>
        <time>2017-03-26T07:28:25Z</time>
      </trkpt>
      <trkpt lat="45.94288" lon="6.14301">
        <ele>521</ele>
        <time>2017-03-26T07:28:30Z</time>
      </trkpt>
      <trkpt lat="45.94273" lon="6.1432">
        <ele>519</ele>
        <time>2017-03-26T07:28:35Z</time>
      </trkpt>
      <trkpt lat="45.94252" lon="6.14327">
        <ele>518</ele>
        <time>2017-03-26T07:28:40Z</time>
      </trkpt>
      <trkpt lat="45.94231" lon="6.14333">
        <ele>516</ele>
        <time>2017-03-26T07:28:45Z</time>
      </trkpt>
      <trkpt lat="45.94212" lon="6.14339">
        <ele>514</ele>
        <time>2017-03-26T07:28:50Z</time>
      </trkpt>
      <trkpt lat="45.94191" lon="6.14347">
        <ele>513</ele>
        <time>2017-03-26T07:28:55Z</time>
      </trkpt>
      <trkpt lat="45.9417" lon="6.14356">
        <ele>512</ele>
        <time>2017-03-26T07:29:00Z</time>
      </trkpt>
      <trkpt lat="45.9415" lon="6.1436">
        <ele>510</ele>
        <time>2017-03-26T07:29:05Z</time>
      </trkpt>
      <trkpt lat="45.94129" lon="6.14367">
        <ele>508</ele>
        <time>2017-03-26T07:29:10Z</time>
      </trkpt>
      <trkpt lat="45.94108" lon="6.14376">
        <ele>507</ele>
        <time>2017-03-26T07:29:15Z</time>
      </trkpt>
      <trkpt lat="45.94088" lon="6.14386">
        <ele>505</ele>
        <time>2017-03-26T07:29:20Z</time>
      </trkpt>
      <trkpt lat="45.94067" lon="6.14393">
        <ele>503</ele>
        <time>2017-03-26T07:29:25Z</time>
      </trkpt>
      <trkpt lat="45.94046" lon="6.144">
        <ele>502</ele>
        <time>2017-03-26T07:29:30Z</time>
      </trkpt>
      <trkpt lat="45.94024" lon="6.14407">
        <ele>501</ele>
        <time>2017-03-26T07:29:35Z</time>
      </trkpt>
      <trkpt lat="45.94005" lon="6.14414">
        <ele>499</ele>
        <time>2017-03-26T07:29:40Z</time>
      </trkpt>
      <trkpt lat="45.93986" lon="6.14419">
        <ele>498</ele>
        <time>2017-03-26T07:29:45Z</time>
      </trkpt>
      <trkpt lat="45.93967" lon="6.14419">
        <ele>496</ele>
        <time>2017-03-26T07:29:50Z</time>
      </trkpt>
      <trkpt lat="45.93953" lon="6.144">
        <ele>495</ele>
        <time>2017-03-26T07:29:55Z</time>
      </trkpt>
      <trkpt lat="45.93934" lon="6.14391">
        <ele>493</ele>
        <time>2017-03-26T07:30:00Z</time>
      </trkpt>
      <trkpt lat="45.93916" lon="6.14372">
        <ele>492</ele>
        <time>2017-03-26T07:30:05Z</time>
      </trkpt>
      <trkpt lat="45.93901" lon="6.14348">
        <ele>491</ele>
        <time>2017-03-26T07:30:10Z</time>
      </trkpt>
      <trkpt lat="45.93888" lon="6.14323">
        <ele>491</ele>
        <time>2017-03-26T07:30:15Z</time>
      </trkpt>
      <trkpt lat="45.93874" lon="6.14298">
        <ele>490</ele>
        <time>2017-03-26T07:30:20Z</time>
      </trkpt>
      <trkpt lat="45.93862" lon="6.14271">
        <ele>490</ele>
        <time>2017-03-26T07:30:25Z</time>
      </trkpt>
      <trkpt lat="45.93851" lon="6.14245">
        <ele>489</ele>
        <time>2017-03-26T07:30:30Z</time>
      </trkpt>
      <trkpt lat="45.93843" lon="6.1422">
        <ele>488</ele>
        <time>2017-03-26T07:30:35Z</time>
      </trkpt>
      <trkpt lat="45.93835" lon="6.14199">
        <ele>488</ele>
        <time>2017-03-26T07:30:40Z</time>
      </trkpt>
      <trkpt lat="45.93829" lon="6.1417">
        <ele>487</ele>
        <time>2017-03-26T07:30:45Z</time>
      </trkpt>
      <trkpt lat="45.93824" lon="6.14141">
        <ele>486</ele>
        <time>2017-03-26T07:30:50Z</time>
      </trkpt>
      <trkpt lat="45.93821" lon="6.14112">
        <ele>485</ele>
        <time>2017-03-26T07:30:55Z</time>
      </trkpt>
      <trkpt lat="45.9382" lon="6.14086">
        <ele>485</ele>
        <time>2017-03-26T07:31:00Z</time>
      </trkpt>
      <trkpt lat="45.93822" lon="6.1406">
        <ele>484</ele>
        <time>2017-03-26T07:31:05Z</time>
      </trkpt>
      <trkpt lat="45.93823" lon="6.14034">
        <ele>484</ele>
        <time>2017-03-26T07:31:10Z</time>
      </trkpt>
      <trkpt lat="45.93823" lon="6.14005">
        <ele>483</ele>
        <time>2017-03-26T07:31:15Z</time>
      </trkpt>
      <trkpt lat="45.93826" lon="6.13976">
        <ele>483</ele>
        <time>2017-03-26T07:31:20Z</time>
      </trkpt>
      <trkpt lat="45.93834" lon="6.13948">
        <ele>483</ele>
        <time>2017-03-26T07:31:25Z</time>
      </trkpt>
      <trkpt lat="45.93843" lon="6.13921">
        <ele>484</ele>
        <time>2017-03-26T07:31:30Z</time>
      </trkpt>
      <trkpt lat="45.9385" lon="6.13894">
        <ele>485</ele>
        <time>2017-03-26T07:31:35Z</time>
      </trkpt>
      <trkpt lat="45.93847" lon="6.13864">
        <ele>485</ele>
        <time>2017-03-26T07:31:40Z</time>
      </trkpt>
      <trkpt lat="45.93837" lon="6.13839">
        <ele>485</ele>
        <time>2017-03-26T07:31:45Z</time>
      </trkpt>
      <trkpt lat="45.9382" lon="6.13825">
        <ele>484</ele>
        <time>2017-03-26T07:31:50Z</time>
      </trkpt>
      <trkpt lat="45.93799" lon="6.13817">
        <ele>483</ele>
        <time>2017-03-26T07:31:55Z</time>
      </trkpt>
      <trkpt lat="45.93785" lon="6.13794">
        <ele>482</ele>
        <time>2017-03-26T07:32:00Z</time>
      </trkpt>
      <trkpt lat="45.93778" lon="6.13766">
        <ele>482</ele>
        <time>2017-03-26T07:32:05Z</time>
      </trkpt>
      <trkpt lat="45.93769" lon="6.13738">
        <ele>481</ele>
        <time>2017-03-26T07:32:10Z</time>
      </trkpt>
      <trkpt lat="45.93757" lon="6.13711">
        <ele>481</ele>
        <time>2017-03-26T07:32:15Z</time>
      </trkpt>
      <trkpt lat="45.93742" lon="6.13701">
        <ele>480</ele>
        <time>2017-03-26T07:32:20Z</time>
      </trkpt>
      <trkpt lat="45.93725" lon="6.13704">
        <ele>478</ele>
        <time>2017-03-26T07:32:25Z</time>
      </trkpt>
      <trkpt lat="45.93711" lon="6.13707">
        <ele>475</ele>
        <time>2017-03-26T07:32:30Z</time>
      </trkpt>
      <trkpt lat="45.937" lon="6.13689">
        <ele>474</ele>
        <time>2017-03-26T07:32:35Z</time>
      </trkpt>
      <trkpt lat="45.93689" lon="6.13668">
        <ele>473</ele>
        <time>2017-03-26T07:32:40Z</time>
      </trkpt>
      <trkpt lat="45.93677" lon="6.13645">
        <ele>473</ele>
        <time>2017-03-26T07:32:45Z</time>
      </trkpt>
      <trkpt lat="45.93667" lon="6.13619">
        <ele>472</ele>
        <time>2017-03-26T07:32:50Z</time>
      </trkpt>
      <trkpt lat="45.93655" lon="6.13594">
        <ele>472</ele>
        <time>2017-03-26T07:32:55Z</time>
      </trkpt>
      <trkpt lat="45.93643" lon="6.13569">
        <ele>470</ele>
        <time>2017-03-26T07:33:00Z</time>
      </trkpt>
      <trkpt lat="45.93633" lon="6.13544">
        <ele>469</ele>
        <time>2017-03-26T07:33:05Z</time>
      </trkpt>
      <trkpt lat="45.93624" lon="6.13519">
        <ele>469</ele>
        <time>2017-03-26T07:33:10Z</time>
      </trkpt>
      <trkpt lat="45.93615" lon="6.13494">
        <ele>468</ele>
        <time>2017-03-26T07:33:15Z</time>
      </trkpt>
      <trkpt lat="45.93605" lon="6.13471">
        <ele>467</ele>
        <time>2017-03-26T07:33:20Z</time>
      </trkpt>
      <trkpt lat="45.93595" lon="6.13445">
        <ele>466</ele>
        <time>2017-03-26T07:33:25Z</time>
      </trkpt>
      <trkpt lat="45.93583" lon="6.13422">
        <ele>465</ele>
        <time>2017-03-26T07:33:30Z</time>
      </trkpt>
      <trkpt lat="45.93569" lon="6.13401">
        <ele>464</ele>
        <time>2017-03-26T07:33:35Z</time>
      </trkpt>
      <trkpt lat="45.93555" lon="6.13382">
        <ele>463</ele>
        <time>2017-03-26T07:33:40Z</time>
      </trkpt>
      <trkpt lat="45.93539" lon="6.13366">
        <ele>461</ele>
        <time>2017-03-26T07:33:45Z</time>
      </trkpt>
      <trkpt lat="45.93524" lon="6.13352">
        <ele>459</ele>
        <time>2017-03-26T07:33:50Z</time>
      </trkpt>
      <trkpt lat="45.93533" lon="6.13328">
        <ele>462</ele>
        <time>2017-03-26T07:33:55Z</time>
      </trkpt>
      <trkpt lat="45.93538" lon="6.13306">
        <ele>464</ele>
        <time>2017-03-26T07:34:00Z</time>
      </trkpt>
      <trkpt lat="45.93531" lon="6.13281">
        <ele>465</ele>
        <time>2017-03-26T07:34:05Z</time>
      </trkpt>
      <trkpt lat="45.93523" lon="6.13259">
        <ele>465</ele>
        <time>2017-03-26T07:34:10Z</time>
      </trkpt>
      <trkpt lat="45.93513" lon="6.13244">
        <ele>465</ele>
        <time>2017-03-26T07:34:15Z</time>
      </trkpt>
      <trkpt lat="45.93499" lon="6.13229">
        <ele>463</ele>
        <time>2017-03-26T07:34:20Z</time>
      </trkpt>
      <trkpt lat="45.93485" lon="6.13212">
        <ele>462</ele>
        <time>2017-03-26T07:34:25Z</time>
      </trkpt>
      <trkpt lat="45.9347" lon="6.13196">
        <ele>460</ele>
        <time>2017-03-26T07:34:30Z</time>
      </trkpt>
      <trkpt lat="45.93453" lon="6.1318">
        <ele>459</ele>
        <time>2017-03-26T07:34:35Z</time>
      </trkpt>
      <trkpt lat="45.93435" lon="6.13158">
        <ele>457</ele>
        <time>2017-03-26T07:34:40Z</time>
      </trkpt>
      <trkpt lat="45.93422" lon="6.13144">
        <ele>456</ele>
        <time>2017-03-26T07:34:45Z</time>
      </trkpt>
      <trkpt lat="45.93407" lon="6.13127">
        <ele>455</ele>
        <time>2017-03-26T07:34:50Z</time>
      </trkpt>
      <trkpt lat="45.93395" lon="6.13107">
        <ele>455</ele>
        <time>2017-03-26T07:34:55Z</time>
      </trkpt>
      <trkpt lat="45.93389" lon="6.13082">
        <ele>455</ele>
        <time>2017-03-26T07:35:00Z</time>
      </trkpt>
      <trkpt lat="45.93382" lon="6.13057">
        <ele>455</ele>
        <time>2017-03-26T07:35:05Z</time>
      </trkpt>
      <trkpt lat="45.93378" lon="6.13031">
        <ele>455</ele>
        <time>2017-03-26T07:35:10Z</time>
      </trkpt>
      <trkpt lat="45.93376" lon="6.13006">
        <ele>456</ele>
        <time>2017-03-26T07:35:15Z</time>
      </trkpt>
      <trkpt lat="45.93369" lon="6.12983">
        <ele>456</ele>
        <time>2017-03-26T07:35:20Z</time>
      </trkpt>
      <trkpt lat="45.93363" lon="6.12959">
        <ele>456</ele>
        <time>2017-03-26T07:35:25Z</time>
      </trkpt>
      <trkpt lat="45.93353" lon="6.12939">
        <ele>454</ele>
        <time>2017-03-26T07:35:30Z</time>
      </trkpt>
      <trkpt lat="45.93349" lon="6.12914">
        <ele>453</ele>
        <time>2017-03-26T07:35:35Z</time>
      </trkpt>
      <trkpt lat="45.93344" lon="6.12887">
        <ele>452</ele>
        <time>2017-03-26T07:35:40Z</time>
      </trkpt>
      <trkpt lat="45.93337" lon="6.1286">
        <ele>450</ele>
        <time>2017-03-26T07:35:45Z</time>
      </trkpt>
      <trkpt lat="45.93327" lon="6.12835">
        <ele>448</ele>
        <time>2017-03-26T07:35:50Z</time>
      </trkpt>
      <trkpt lat="45.93321" lon="6.12819">
        <ele>446</ele>
        <time>2017-03-26T07:35:55Z</time>
      </trkpt>
      <trkpt lat="45.93334" lon="6.12798">
        <ele>447</ele>
        <time>2017-03-26T07:36:00Z</time>
      </trkpt>
      <trkpt lat="45.93338" lon="6.12773">
        <ele>447</ele>
        <time>2017-03-26T07:36:05Z</time>
      </trkpt>
      <trkpt lat="45.93347" lon="6.12748">
        <ele>448</ele>
        <time>2017-03-26T07:36:10Z</time>
      </trkpt>
      <trkpt lat="45.93354" lon="6.12718">
        <ele>449</ele>
        <time>2017-03-26T07:36:15Z</time>
      </trkpt>
      <trkpt lat="45.93353" lon="6.12693">
        <ele>448</ele>
        <time>2017-03-26T07:36:20Z</time>
      </trkpt>
      <trkpt lat="45.9336" lon="6.1267">
        <ele>448</ele>
        <time>2017-03-26T07:36:25Z</time>
      </trkpt>
      <trkpt lat="45.93369" lon="6.12646">
        <ele>449</ele>
        <time>2017-03-26T07:36:30Z</time>
      </trkpt>
      <trkpt lat="45.93378" lon="6.12626">
        <ele>450</ele>
        <time>2017-03-26T07:36:35Z</time>
      </trkpt>
      <trkpt lat="45.93388" lon="6.12606">
        <ele>452</ele>
        <time>2017-03-26T07:36:40Z</time>
      </trkpt>
      <trkpt lat="45.93396" lon="6.12586">
        <ele>453</ele>
        <time>2017-03-26T07:36:45Z</time>
      </trkpt>
      <trkpt lat="45.93403" lon="6.12564">
        <ele>453</ele>
        <time>2017-03-26T07:36:50Z</time>
      </trkpt>
      <trkpt lat="45.9341" lon="6.12539">
        <ele>454</ele>
        <time>2017-03-26T07:36:55Z</time>
      </trkpt>
      <trkpt lat="45.93417" lon="6.12516">
        <ele>455</ele>
        <time>2017-03-26T07:37:00Z</time>
      </trkpt>
      <trkpt lat="45.93422" lon="6.1249">
        <ele>455</ele>
        <time>2017-03-26T07:37:05Z</time>
      </trkpt>
      <trkpt lat="45.93422" lon="6.12463">
        <ele>454</ele>
        <time>2017-03-26T07:37:10Z</time>
      </trkpt>
      <trkpt lat="45.9342" lon="6.12431">
        <ele>454</ele>
        <time>2017-03-26T07:37:15Z</time>
      </trkpt>
      <trkpt lat="45.93417" lon="6.12397">
        <ele>453</ele>
        <time>2017-03-26T07:37:20Z</time>
      </trkpt>
      <trkpt lat="45.93413" lon="6.12371">
        <ele>453</ele>
        <time>2017-03-26T07:37:25Z</time>
      </trkpt>
      <trkpt lat="45.93404" lon="6.12343">
        <ele>452</ele>
        <time>2017-03-26T07:37:30Z</time>
      </trkpt>
      <trkpt lat="45.93389" lon="6.12328">
        <ele>451</ele>
        <time>2017-03-26T07:37:35Z</time>
      </trkpt>
      <trkpt lat="45.93375" lon="6.12311">
        <ele>449</ele>
        <time>2017-03-26T07:37:40Z</time>
      </trkpt>
      <trkpt lat="45.93361" lon="6.12293">
        <ele>448</ele>
        <time>2017-03-26T07:37:45Z</time>
      </trkpt>
      <trkpt lat="45.93354" lon="6.12267">
        <ele>447</ele>
        <time>2017-03-26T07:37:50Z</time>
      </trkpt>
      <trkpt lat="45.93345" lon="6.12242">
        <ele>446</ele>
        <time>2017-03-26T07:37:55Z</time>
      </trkpt>
      <trkpt lat="45.93329" lon="6.12227">
        <ele>444</ele>
        <time>2017-03-26T07:38:00Z</time>
      </trkpt>
      <trkpt lat="45.93313" lon="6.12215">
        <ele>442</ele>
        <time>2017-03-26T07:38:05Z</time>
      </trkpt>
      <trkpt lat="45.93296" lon="6.12203">
        <ele>441</ele>
        <time>2017-03-26T07:38:10Z</time>
      </trkpt>
      <trkpt lat="45.93281" lon="6.12187">
        <ele>441</ele>
        <time>2017-03-26T07:38:15Z</time>
      </trkpt>
      <trkpt lat="45.93267" lon="6.12171">
        <ele>440</ele>
        <time>2017-03-26T07:38:20Z</time>
      </trkpt>
      <trkpt lat="45.93252" lon="6.12156">
        <ele>439</ele>
        <time>2017-03-26T07:38:25Z</time>
      </trkpt>
      <trkpt lat="45.93237" lon="6.12141">
        <ele>438</ele>
        <time>2017-03-26T07:38:30Z</time>
      </trkpt>
      <trkpt lat="45.9322" lon="6.1213">
        <ele>439</ele>
        <time>2017-03-26T07:38:35Z</time>
      </trkpt>
      <trkpt lat="45.93205" lon="6.12117">
        <ele>439</ele>
        <time>2017-03-26T07:38:40Z</time>
      </trkpt>
      <trkpt lat="45.93187" lon="6.12106">
        <ele>439</ele>
        <time>2017-03-26T07:38:45Z</time>
      </trkpt>
      <trkpt lat="45.93169" lon="6.12097">
        <ele>439</ele>
        <time>2017-03-26T07:38:50Z</time>
      </trkpt>
      <trkpt lat="45.9315" lon="6.12093">
        <ele>439</ele>
        <time>2017-03-26T07:38:55Z</time>
      </trkpt>
      <trkpt lat="45.93131" lon="6.12089">
        <ele>438</ele>
        <time>2017-03-26T07:39:00Z</time>
      </trkpt>
      <trkpt lat="45.93115" lon="6.1208">
        <ele>438</ele>
        <time>2017-03-26T07:39:05Z</time>
      </trkpt>
      <trkpt lat="45.93098" lon="6.12073">
        <ele>438</ele>
        <time>2017-03-26T07:39:10Z</time>
      </trkpt>
      <trkpt lat="45.93084" lon="6.12063">
        <ele>438</ele>
        <time>2017-03-26T07:39:15Z</time>
      </trkpt>
      <trkpt lat="45.93068" lon="6.12055">
        <ele>438</ele>
        <time>2017-03-26T07:39:20Z</time>
      </trkpt>
      <trkpt lat="45.93051" lon="6.12045">
        <ele>438</ele>
        <time>2017-03-26T07:39:25Z</time>
      </trkpt>
      <trkpt lat="45.93035" lon="6.12038">
        <ele>437</ele>
        <time>2017-03-26T07:39:30Z</time>
      </trkpt>
      <trkpt lat="45.93019" lon="6.12038">
        <ele>437</ele>
        <time>2017-03-26T07:39:35Z</time>
      </trkpt>
      <trkpt lat="45.93001" lon="6.12038">
        <ele>436</ele>
        <time>2017-03-26T07:39:40Z</time>
      </trkpt>
      <trkpt lat="45.92984" lon="6.1203">
        <ele>436</ele>
        <time>2017-03-26T07:39:45Z</time>
      </trkpt>
      <trkpt lat="45.92971" lon="6.12017">
        <ele>436</ele>
        <time>2017-03-26T07:39:50Z</time>
      </trkpt>
      <trkpt lat="45.92962" lon="6.11993">
        <ele>436</ele>
        <time>2017-03-26T07:39:55Z</time>
      </trkpt>
      <trkpt lat="45.92951" lon="6.11971">
        <ele>436</ele>
        <time>2017-03-26T07:40:00Z</time>
      </trkpt>
      <trkpt lat="45.92935" lon="6.11958">
        <ele>436</ele>
        <time>2017-03-26T07:40:05Z</time>
      </trkpt>
      <trkpt lat="45.92919" lon="6.11946">
        <ele>435</ele>
        <time>2017-03-26T07:40:10Z</time>
      </trkpt>
      <trkpt lat="45.92904" lon="6.11932">
        <ele>435</ele>
        <time>2017-03-26T07:40:15Z</time>
      </trkpt>
      <trkpt lat="45.92889" lon="6.11918">
        <ele>435</ele>
        <time>2017-03-26T07:40:20Z</time>
      </trkpt>
      <trkpt lat="45.92871" lon="6.11909">
        <ele>435</ele>
        <time>2017-03-26T07:40:25Z</time>
      </trkpt>
      <trkpt lat="45.92855" lon="6.11898">
        <ele>435</ele>
        <time>2017-03-26T07:40:30Z</time>
      </trkpt>
      <trkpt lat="45.92838" lon="6.11887">
        <ele>435</ele>
        <time>2017-03-26T07:40:35Z</time>
      </trkpt>
      <trkpt lat="45.92822" lon="6.11874">
        <ele>435</ele>
        <time>2017-03-26T07:40:40Z</time>
      </trkpt>
      <trkpt lat="45.92809" lon="6.11857">
        <ele>435</ele>
        <time>2017-03-26T07:40:45Z</time>
      </trkpt>
      <trkpt lat="45.92793" lon="6.11855">
        <ele>434</ele>
        <time>2017-03-26T07:40:50Z</time>
      </trkpt>
      <trkpt lat="45.92779" lon="6.11842">
        <ele>434</ele>
        <time>2017-03-26T07:40:55Z</time>
      </trkpt>
      <trkpt lat="45.92766" lon="6.11825">
        <ele>434</ele>
        <time>2017-03-26T07:41:00Z</time>
      </trkpt>
      <trkpt lat="45.92752" lon="6.11817">
        <ele>434</ele>
        <time>2017-03-26T07:41:05Z</time>
      </trkpt>
      <trkpt lat="45.92737" lon="6.11803">
        <ele>434</ele>
        <time>2017-03-26T07:41:10Z</time>
      </trkpt>
      <trkpt lat="45.92723" lon="6.11793">
        <ele>433</ele>
        <time>2017-03-26T07:41:15Z</time>
      </trkpt>
      <trkpt lat="45.92715" lon="6.11775">
        <ele>433</ele>
        <time>2017-03-26T07:41:20Z</time>
      </trkpt>
      <trkpt lat="45.92709" lon="6.11752">
        <ele>433</ele>
        <time>2017-03-26T07:41:25Z</time>
      </trkpt>
      <trkpt lat="45.92698" lon="6.11732">
        <ele>433</ele>
        <time>2017-03-26T07:41:30Z</time>
      </trkpt>
      <trkpt lat="45.92682" lon="6.11723">
        <ele>433</ele>
        <time>2017-03-26T07:41:35Z</time>
      </trkpt>
      <trkpt lat="45.92666" lon="6.11726">
        <ele>433</ele>
        <time>2017-03-26T07:41:40Z</time>
      </trkpt>
      <trkpt lat="45.92648" lon="6.11723">
        <ele>433</ele>
        <time>2017-03-26T07:41:45Z</time>
      </trkpt>
      <trkpt lat="45.9263" lon="6.11716">
        <ele>433</ele>
        <time>2017-03-26T07:41:50Z</time>
      </trkpt>
      <trkpt lat="45.92614" lon="6.11709">
        <ele>433</ele>
        <time>2017-03-26T07:41:55Z</time>
      </trkpt>
      <trkpt lat="45.92597" lon="6.11701">
        <ele>433</ele>
        <time>2017-03-26T07:42:00Z</time>
      </trkpt>
      <trkpt lat="45.92581" lon="6.1169">
        <ele>432</ele>
        <time>2017-03-26T07:42:05Z</time>
      </trkpt>
      <trkpt lat="45.92565" lon="6.11677">
        <ele>432</ele>
        <time>2017-03-26T07:42:10Z</time>
      </trkpt>
      <trkpt lat="45.9255" lon="6.11666">
        <ele>432</ele>
        <time>2017-03-26T07:42:15Z</time>
      </trkpt>
      <trkpt lat="45.92535" lon="6.11655">
        <ele>432</ele>
        <time>2017-03-26T07:42:20Z</time>
      </trkpt>
      <trkpt lat="45.9252" lon="6.11647">
        <ele>432</ele>
        <time>2017-03-26T07:42:25Z</time>
      </trkpt>
      <trkpt lat="45.92504" lon="6.11637">
        <ele>432</ele>
        <time>2017-03-26T07:42:30Z</time>
      </trkpt>
      <trkpt lat="45.9249" lon="6.11628">
        <ele>432</ele>
        <time>2017-03-26T07:42:35Z</time>
      </trkpt>
      <trkpt lat="45.92474" lon="6.1162">
        <ele>431</ele>
        <time>2017-03-26T07:42:40Z</time>
      </trkpt>
      <trkpt lat="45.92459" lon="6.11612">
        <ele>431</ele>
        <time>2017-03-26T07:42:45Z</time>
      </trkpt>
      <trkpt lat="45.92445" lon="6.11604">
        <ele>431</ele>
        <time>2017-03-26T07:42:50Z</time>
      </trkpt>
      <trkpt lat="45.92428" lon="6.11592">
        <ele>431</ele>
        <time>2017-03-26T07:42:55Z</time>
      </trkpt>
      <trkpt lat="45.92412" lon="6.1158">
        <ele>431</ele>
        <time>2017-03-26T07:43:00Z</time>
      </trkpt>
      <trkpt lat="45.92396" lon="6.11568">
        <ele>431</ele>
        <time>2017-03-26T07:43:05Z</time>
      </trkpt>
      <trkpt lat="45.9238" lon="6.11558">
        <ele>431</ele>
        <time>2017-03-26T07:43:10Z</time>
      </trkpt>
      <trkpt lat="45.92365" lon="6.11545">
        <ele>431</ele>
        <time>2017-03-26T07:43:15Z</time>
      </trkpt>
      <trkpt lat="45.92352" lon="6.11532">
        <ele>431</ele>
        <time>2017-03-26T07:43:20Z</time>
      </trkpt>
      <trkpt lat="45.92336" lon="6.11522">
        <ele>431</ele>
        <time>2017-03-26T07:43:25Z</time>
      </trkpt>
      <trkpt lat="45.92321" lon="6.11514">
        <ele>431</ele>
        <time>2017-03-26T07:43:30Z</time>
      </trkpt>
      <trkpt lat="45.92305" lon="6.11502">
        <ele>431</ele>
        <time>2017-03-26T07:43:35Z</time>
      </trkpt>
      <trkpt lat="45.92296" lon="6.11483">
        <ele>432</ele>
        <time>2017-03-26T07:43:40Z</time>
      </trkpt>
      <trkpt lat="45.92288" lon="6.1146">
        <ele>432</ele>
        <time>2017-03-26T07:43:45Z</time>
      </trkpt>
      <trkpt lat="45.92282" lon="6.11437">
        <ele>432</ele>
        <time>2017-03-26T07:43:50Z</time>
      </trkpt>
      <trkpt lat="45.9228" lon="6.11412">
        <ele>432</ele>
        <time>2017-03-26T07:43:55Z</time>
      </trkpt>
      <trkpt lat="45.92282" lon="6.11392">
        <ele>432</ele>
        <time>2017-03-26T07:44:00Z</time>
      </trkpt>
      <trkpt lat="45.92286" lon="6.11365">
        <ele>432</ele>
        <time>2017-03-26T07:44:05Z</time>
      </trkpt>
      <trkpt lat="45.92284" lon="6.11341">
        <ele>433</ele>
        <time>2017-03-26T07:44:10Z</time>
      </trkpt>
      <trkpt lat="45.92271" lon="6.11341">
        <ele>432</ele>
        <time>2017-03-26T07:44:15Z</time>
      </trkpt>
      <trkpt lat="45.92255" lon="6.11331">
        <ele>432</ele>
        <time>2017-03-26T07:44:20Z</time>
      </trkpt>
      <trkpt lat="45.92239" lon="6.11326">
        <ele>432</ele>
        <time>2017-03-26T07:44:25Z</time>
      </trkpt>
      <trkpt lat="45.92226" lon="6.1132">
        <ele>432</ele>
        <time>2017-03-26T07:44:30Z</time>
      </trkpt>
      <trkpt lat="45.92215" lon="6.11344">
        <ele>432</ele>
        <time>2017-03-26T07:44:35Z</time>
      </trkpt>
      <trkpt lat="45.92203" lon="6.11351">
        <ele>431</ele>
        <time>2017-03-26T07:44:40Z</time>
      </trkpt>
      <trkpt lat="45.92195" lon="6.1136">
        <ele>431</ele>
        <time>2017-03-26T07:44:45Z</time>
      </trkpt>
      <trkpt lat="45.92189" lon="6.11382">
        <ele>431</ele>
        <time>2017-03-26T07:44:50Z</time>
      </trkpt>
      <trkpt lat="45.92184" lon="6.11405">
        <ele>431</ele>
        <time>2017-03-26T07:44:55Z</time>
      </trkpt>
      <trkpt lat="45.92173" lon="6.11411">
        <ele>430</ele>
        <time>2017-03-26T07:45:00Z</time>
      </trkpt>
      <trkpt lat="45.92158" lon="6.11407">
        <ele>430</ele>
        <time>2017-03-26T07:45:05Z</time>
      </trkpt>
      <trkpt lat="45.92142" lon="6.11404">
        <ele>430</ele>
        <time>2017-03-26T07:45:10Z</time>
      </trkpt>
      <trkpt lat="45.9213" lon="6.11391">
        <ele>430</ele>
        <time>2017-03-26T07:45:15Z</time>
      </trkpt>
      <trkpt lat="45.9212" lon="6.11373">
        <ele>430</ele>
        <time>2017-03-26T07:45:20Z</time>
      </trkpt>
      <trkpt lat="45.92108" lon="6.11359">
        <ele>430</ele>
        <time>2017-03-26T07:45:25Z</time>
      </trkpt>
      <trkpt lat="45.92095" lon="6.11348">
        <ele>430</ele>
        <time>2017-03-26T07:45:30Z</time>
      </trkpt>
      <trkpt lat="45.92078" lon="6.11334">
        <ele>430</ele>
        <time>2017-03-26T07:45:35Z</time>
      </trkpt>
      <trkpt lat="45.92068" lon="6.11313">
        <ele>430</ele>
        <time>2017-03-26T07:45:40Z</time>
      </trkpt>
      <trkpt lat="45.9207" lon="6.11291">
        <ele>430</ele>
        <time>2017-03-26T07:45:45Z</time>
      </trkpt>
      <trkpt lat="45.9207" lon="6.11269">
        <ele>430</ele>
        <time>2017-03-26T07:45:50Z</time>
      </trkpt>
      <trkpt lat="45.92067" lon="6.11243">
        <ele>431</ele>
        <time>2017-03-26T07:45:55Z</time>
      </trkpt>
      <trkpt lat="45.92062" lon="6.11217">
        <ele>431</ele>
        <time>2017-03-26T07:46:00Z</time>
      </trkpt>
      <trkpt lat="45.92056" lon="6.1119">
        <ele>431</ele>
        <time>2017-03-26T07:46:05Z</time>
      </trkpt>
      <trkpt lat="45.9205" lon="6.11168">
        <ele>431</ele>
        <time>2017-03-26T07:46:10Z</time>
      </trkpt>
      <trkpt lat="45.92042" lon="6.11147">
        <ele>431</ele>
        <time>2017-03-26T07:46:15Z</time>
      </trkpt>
      <trkpt lat="45.92031" lon="6.11128">
        <ele>430</ele>
        <time>2017-03-26T07:46:20Z</time>
      </trkpt>
      <trkpt lat="45.92024" lon="6.11109">
        <ele>430</ele>
        <time>2017-03-26T07:46:25Z</time>
      </trkpt>
      <trkpt lat="45.92023" lon="6.11085">
        <ele>431</ele>
        <time>2017-03-26T07:46:30Z</time>
      </trkpt>
      <trkpt lat="45.92017" lon="6.11066">
        <ele>431</ele>
        <time>2017-03-26T07:46:35Z</time>
      </trkpt>
      <trkpt lat="45.92006" lon="6.11048">
        <ele>431</ele>
        <time>2017-03-26T07:46:40Z</time>
      </trkpt>
      <trkpt lat="45.91992" lon="6.11035">
        <ele>430</ele>
        <time>2017-03-26T07:46:45Z</time>
      </trkpt>
      <trkpt lat="45.9198" lon="6.11021">
        <ele>429</ele>
        <time>2017-03-26T07:46:50Z</time>
      </trkpt>
      <trkpt lat="45.91967" lon="6.11006">
        <ele>428</ele>
        <time>2017-03-26T07:46:55Z</time>
      </trkpt>
      <trkpt lat="45.91957" lon="6.10988">
        <ele>428</ele>
        <time>2017-03-26T07:47:00Z</time>
      </trkpt>
      <trkpt lat="45.91946" lon="6.1097">
        <ele>427</ele>
        <time>2017-03-26T07:47:05Z</time>
      </trkpt>
      <trkpt lat="45.91936" lon="6.10952">
        <ele>427</ele>
        <time>2017-03-26T07:47:10Z</time>
      </trkpt>
      <trkpt lat="45.91925" lon="6.10934">
        <ele>427</ele>
        <time>2017-03-26T07:47:15Z</time>
      </trkpt>
      <trkpt lat="45.91915" lon="6.10916">
        <ele>427</ele>
        <time>2017-03-26T07:47:20Z</time>
      </trkpt>
      <trkpt lat="45.91903" lon="6.10898">
        <ele>426</ele>
        <time>2017-03-26T07:47:25Z</time>
      </trkpt>
      <trkpt lat="45.91892" lon="6.10879">
        <ele>426</ele>
        <time>2017-03-26T07:47:30Z</time>
      </trkpt>
      <trkpt lat="45.9188" lon="6.1086">
        <ele>425</ele>
        <time>2017-03-26T07:47:35Z</time>
      </trkpt>
      <trkpt lat="45.9187" lon="6.10841">
        <ele>425</ele>
        <time>2017-03-26T07:47:40Z</time>
      </trkpt>
      <trkpt lat="45.91857" lon="6.10825">
        <ele>425</ele>
        <time>2017-03-26T07:47:45Z</time>
      </trkpt>
      <trkpt lat="45.91844" lon="6.10811">
        <ele>425</ele>
        <time>2017-03-26T07:47:50Z</time>
      </trkpt>
      <trkpt lat="45.9183" lon="6.10805">
        <ele>425</ele>
        <time>2017-03-26T07:47:55Z</time>
      </trkpt>
      <trkpt lat="45.91813" lon="6.10805">
        <ele>424</ele>
        <time>2017-03-26T07:48:00Z</time>
      </trkpt>
      <trkpt lat="45.91799" lon="6.10801">
        <ele>424</ele>
        <time>2017-03-26T07:48:05Z</time>
      </trkpt>
      <trkpt lat="45.91783" lon="6.10804">
        <ele>424</ele>
        <time>2017-03-26T07:48:10Z</time>
      </trkpt>
      <trkpt lat="45.91766" lon="6.10797">
        <ele>424</ele>
        <time>2017-03-26T07:48:15Z</time>
      </trkpt>
      <trkpt lat="45.91751" lon="6.10785">
        <ele>424</ele>
        <time>2017-03-26T07:48:20Z</time>
      </trkpt>
      <trkpt lat="45.91736" lon="6.10773">
        <ele>424</ele>
        <time>2017-03-26T07:48:25Z</time>
      </trkpt>
      <trkpt lat="45.91722" lon="6.10762">
        <ele>424</ele>
        <time>2017-03-26T07:48:30Z</time>
      </trkpt>
      <trkpt lat="45.91708" lon="6.1075">
        <ele>424</ele>
        <time>2017-03-26T07:48:35Z</time>
      </trkpt>
      <trkpt lat="45.91692" lon="6.1074">
        <ele>424</ele>
        <time>2017-03-26T07:48:40Z</time>
      </trkpt>
      <trkpt lat="45.91679" lon="6.10729">
        <ele>423</ele>
        <time>2017-03-26T07:48:45Z</time>
      </trkpt>
      <trkpt lat="45.91667" lon="6.10716">
        <ele>423</ele>
        <time>2017-03-26T07:48:50Z</time>
      </trkpt>
      <trkpt lat="45.91652" lon="6.10704">
        <ele>423</ele>
        <time>2017-03-26T07:48:55Z</time>
      </trkpt>
      <trkpt lat="45.91638" lon="6.10692">
        <ele>423</ele>
        <time>2017-03-26T07:49:00Z</time>
      </trkpt>
      <trkpt lat="45.91623" lon="6.10681">
        <ele>423</ele>
        <time>2017-03-26T07:49:05Z</time>
      </trkpt>
      <trkpt lat="45.91608" lon="6.10675">
        <ele>423</ele>
        <time>2017-03-26T07:49:10Z</time>
      </trkpt>
      <trkpt lat="45.91593" lon="6.10666">
        <ele>423</ele>
        <time>2017-03-26T07:49:15Z</time>
      </trkpt>
      <trkpt lat="45.91596" lon="6.10649">
        <ele>423</ele>
        <time>2017-03-26T07:49:20Z</time>
      </trkpt>
      <trkpt lat="45.91597" lon="6.10627">
        <ele>423</ele>
        <time>2017-03-26T07:49:25Z</time>
      </trkpt>
      <trkpt lat="45.91584" lon="6.1061">
        <ele>423</ele>
        <time>2017-03-26T07:49:30Z</time>
      </trkpt>
      <trkpt lat="45.91567" lon="6.10607">
        <ele>423</ele>
        <time>2017-03-26T07:49:35Z</time>
      </trkpt>
      <trkpt lat="45.91555" lon="6.10612">
        <ele>422</ele>
        <time>2017-03-26T07:49:40Z</time>
      </trkpt>
      <trkpt lat="45.9154" lon="6.10613">
        <ele>422</ele>
        <time>2017-03-26T07:49:45Z</time>
      </trkpt>
      <trkpt lat="45.91526" lon="6.10604">
        <ele>422</ele>
        <time>2017-03-26T07:49:50Z</time>
      </trkpt>
      <trkpt lat="45.91514" lon="6.10586">
        <ele>422</ele>
        <time>2017-03-26T07:49:55Z</time>
      </trkpt>
      <trkpt lat="45.91503" lon="6.10569">
        <ele>422</ele>
        <time>2017-03-26T07:50:00Z</time>
      </trkpt>
      <trkpt lat="45.9149" lon="6.1055">
        <ele>422</ele>
        <time>2017-03-26T07:50:05Z</time>
      </trkpt>
      <trkpt lat="45.91477" lon="6.10536">
        <ele>422</ele>
        <time>2017-03-26T07:50:10Z</time>
      </trkpt>
      <trkpt lat="45.91462" lon="6.10531">
        <ele>422</ele>
        <time>2017-03-26T07:50:15Z</time>
      </trkpt>
      <trkpt lat="45.91448" lon="6.10536">
        <ele>422</ele>
        <time>2017-03-26T07:50:20Z</time>
      </trkpt>
      <trkpt lat="45.91436" lon="6.10549">
        <ele>422</ele>
        <time>2017-03-26T07:50:25Z</time>
      </trkpt>
      <trkpt lat="45.91425" lon="6.10563">
        <ele>422</ele>
        <time>2017-03-26T07:50:30Z</time>
      </trkpt>
      <trkpt lat="45.91417" lon="6.10577">
        <ele>423</ele>
        <time>2017-03-26T07:50:35Z</time>
      </trkpt>
      <trkpt lat="45.91407" lon="6.10591">
        <ele>423</ele>
        <time>2017-03-26T07:50:40Z</time>
      </trkpt>
      <trkpt lat="45.91398" lon="6.10604">
        <ele>424</ele>
        <time>2017-03-26T07:50:45Z</time>
      </trkpt>
      <trkpt lat="45.91388" lon="6.1062">
        <ele>425</ele>
        <time>2017-03-26T07:50:50Z</time>
      </trkpt>
      <trkpt lat="45.91377" lon="6.1064">
        <ele>425</ele>
        <time>2017-03-26T07:50:55Z</time>
      </trkpt>
      <trkpt lat="45.91367" lon="6.1066">
        <ele>426</ele>
        <time>2017-03-26T07:51:00Z</time>
      </trkpt>
      <trkpt lat="45.91357" lon="6.10679">
        <ele>426</ele>
        <time>2017-03-26T07:51:05Z</time>
      </trkpt>
      <trkpt lat="45.91348" lon="6.107">
        <ele>427</ele>
        <time>2017-03-26T07:51:10Z</time>
      </trkpt>
      <trkpt lat="45.91336" lon="6.10722">
        <ele>427</ele>
        <time>2017-03-26T07:51:15Z</time>
      </trkpt>
      <trkpt lat="45.91326" lon="6.10744">
        <ele>428</ele>
        <time>2017-03-26T07:51:20Z</time>
      </trkpt>
      <trkpt lat="45.91316" lon="6.10763">
        <ele>429</ele>
        <time>2017-03-26T07:51:25Z</time>
      </trkpt>
      <trkpt lat="45.91307" lon="6.10783">
        <ele>429</ele>
        <time>2017-03-26T07:51:30Z</time>
      </trkpt>
      <trkpt lat="45.91297" lon="6.10801">
        <ele>429</ele>
        <time>2017-03-26T07:51:35Z</time>
      </trkpt>
      <trkpt lat="45.9129" lon="6.1082">
        <ele>430</ele>
        <time>2017-03-26T07:51:40Z</time>
      </trkpt>
      <trkpt lat="45.91278" lon="6.10831">
        <ele>430</ele>
        <time>2017-03-26T07:51:45Z</time>
      </trkpt>
      <trkpt lat="45.91262" lon="6.10829">
        <ele>430</ele>
        <time>2017-03-26T07:51:50Z</time>
      </trkpt>
      <trkpt lat="45.91245" lon="6.10828">
        <ele>430</ele>
        <time>2017-03-26T07:51:55Z</time>
      </trkpt>
      <trkpt lat="45.9123" lon="6.10827">
        <ele>430</ele>
        <time>2017-03-26T07:52:00Z</time>
      </trkpt>
      <trkpt lat="45.91217" lon="6.10825">
        <ele>431</ele>
        <time>2017-03-26T07:52:05Z</time>
      </trkpt>
      <trkpt lat="45.91202" lon="6.10821">
        <ele>431</ele>
        <time>2017-03-26T07:52:10Z</time>
      </trkpt>
      <trkpt lat="45.91184" lon="6.10819">
        <ele>431</ele>
        <time>2017-03-26T07:52:15Z</time>
      </trkpt>
      <trkpt lat="45.91169" lon="6.10815">
        <ele>432</ele>
        <time>2017-03-26T07:52:20Z</time>
      </trkpt>
      <trkpt lat="45.91152" lon="6.10815">
        <ele>433</ele>
        <time>2017-03-26T07:52:25Z</time>
      </trkpt>
      <trkpt lat="45.91136" lon="6.10814">
        <ele>433</ele>
        <time>2017-03-26T07:52:30Z</time>
      </trkpt>
      <trkpt lat="45.91125" lon="6.10801">
        <ele>433</ele>
        <time>2017-03-26T07:52:35Z</time>
      </trkpt>
      <trkpt lat="45.9111" lon="6.10804">
        <ele>434</ele>
        <time>2017-03-26T07:52:40Z</time>
      </trkpt>
      <trkpt lat="45.91096" lon="6.1081">
        <ele>435</ele>
        <time>2017-03-26T07:52:45Z</time>
      </trkpt>
      <trkpt lat="45.91083" lon="6.10816">
        <ele>436</ele>
        <time>2017-03-26T07:52:50Z</time>
      </trkpt>
      <trkpt lat="45.9107" lon="6.10822">
        <ele>436</ele>
        <time>2017-03-26T07:52:55Z</time>
      </trkpt>
      <trkpt lat="45.91059" lon="6.10831">
        <ele>437</ele>
        <time>2017-03-26T07:53:00Z</time>
      </trkpt>
      <trkpt lat="45.91048" lon="6.10833">
        <ele>438</ele>
        <time>2017-03-26T07:53:05Z</time>
      </trkpt>
      <trkpt lat="45.91043" lon="6.10826">
        <ele>438</ele>
        <time>2017-03-26T07:53:10Z</time>
      </trkpt>
      <trkpt lat="45.91036" lon="6.10823">
        <ele>438</ele>
        <time>2017-03-26T07:53:15Z</time>
      </trkpt>
      <trkpt lat="45.91032" lon="6.10826">
        <ele>438</ele>
        <time>2017-03-26T07:53:20Z</time>
      </trkpt>
      <trkpt lat="45.91031" lon="6.10832">
        <ele>439</ele>
        <time>2017-03-26T07:53:25Z</time>
      </trkpt>
      <trkpt lat="45.91032" lon="6.10838">
        <ele>439</ele>
        <time>2017-03-26T07:53:30Z</time>
      </trkpt>
      <trkpt lat="45.91034" lon="6.10849">
        <ele>439</ele>
        <time>2017-03-26T07:53:35Z</time>
      </trkpt>
      <trkpt lat="45.91038" lon="6.10864">
        <ele>439</ele>
        <time>2017-03-26T07:53:40Z</time>
      </trkpt>
      <trkpt lat="45.91042" lon="6.10878">
        <ele>439</ele>
        <time>2017-03-26T07:53:45Z</time>
      </trkpt>
      <trkpt lat="45.91035" lon="6.10889">
        <ele>440</ele>
        <time>2017-03-26T07:53:50Z</time>
      </trkpt>
      <trkpt lat="45.91025" lon="6.10892">
        <ele>440</ele>
        <time>2017-03-26T07:53:55Z</time>
      </trkpt>
      <trkpt lat="45.91014" lon="6.10883">
        <ele>440</ele>
        <time>2017-03-26T07:54:00Z</time>
      </trkpt>
      <trkpt lat="45.91004" lon="6.10867">
        <ele>440</ele>
        <time>2017-03-26T07:54:05Z</time>
      </trkpt>
      <trkpt lat="45.90994" lon="6.10846">
        <ele>440</ele>
        <time>2017-03-26T07:54:10Z</time>
      </trkpt>
      <trkpt lat="45.90987" lon="6.10832">
        <ele>440</ele>
        <time>2017-03-26T07:54:15Z</time>
      </trkpt>
      <trkpt lat="45.90981" lon="6.10813">
        <ele>440</ele>
        <time>2017-03-26T07:54:20Z</time>
      </trkpt>
      <trkpt lat="45.90971" lon="6.10797">
        <ele>440</ele>
        <time>2017-03-26T07:54:25Z</time>
      </trkpt>
      <trkpt lat="45.90962" lon="6.10778">
        <ele>440</ele>
        <time>2017-03-26T07:54:30Z</time>
      </trkpt>
      <trkpt lat="45.90953" lon="6.10759">
        <ele>439</ele>
        <time>2017-03-26T07:54:35Z</time>
      </trkpt>
      <trkpt lat="45.90942" lon="6.10741">
        <ele>439</ele>
        <time>2017-03-26T07:54:40Z</time>
      </trkpt>
      <trkpt lat="45.90933" lon="6.10723">
        <ele>439</ele>
        <time>2017-03-26T07:54:45Z</time>
      </trkpt>
      <trkpt lat="45.90922" lon="6.10705">
        <ele>439</ele>
        <time>2017-03-26T07:54:50Z</time>
      </trkpt>
      <trkpt lat="45.90911" lon="6.10686">
        <ele>439</ele>
        <time>2017-03-26T07:54:55Z</time>
      </trkpt>
      <trkpt lat="45.90901" lon="6.10668">
        <ele>439</ele>
        <time>2017-03-26T07:55:00Z</time>
      </trkpt>
      <trkpt lat="45.90891" lon="6.1065">
        <ele>439</ele>
        <time>2017-03-26T07:55:05Z</time>
      </trkpt>
      <trkpt lat="45.90881" lon="6.10632">
        <ele>438</ele>
        <time>2017-03-26T07:55:10Z</time>
      </trkpt>
      <trkpt lat="45.90869" lon="6.10617">
        <ele>438</ele>
        <time>2017-03-26T07:55:15Z</time>
      </trkpt>
      <trkpt lat="45.90859" lon="6.10601">
        <ele>438</ele>
        <time>2017-03-26T07:55:20Z</time>
      </trkpt>
      <trkpt lat="45.90849" lon="6.10583">
        <ele>437</ele>
        <time>2017-03-26T07:55:25Z</time>
      </trkpt>
      <trkpt lat="45.90838" lon="6.10568">
        <ele>437</ele>
        <time>2017-03-26T07:55:30Z</time>
      </trkpt>
      <trkpt lat="45.90825" lon="6.10553">
        <ele>436</ele>
        <time>2017-03-26T07:55:35Z</time>
      </trkpt>
      <trkpt lat="45.9081" lon="6.10539">
        <ele>436</ele>
        <time>2017-03-26T07:55:40Z</time>
      </trkpt>
      <trkpt lat="45.90796" lon="6.10525">
        <ele>435</ele>
        <time>2017-03-26T07:55:45Z</time>
      </trkpt>
      <trkpt lat="45.90781" lon="6.10515">
        <ele>435</ele>
        <time>2017-03-26T07:55:50Z</time>
      </trkpt>
      <trkpt lat="45.90765" lon="6.10511">
        <ele>435</ele>
        <time>2017-03-26T07:55:55Z</time>
      </trkpt>
      <trkpt lat="45.9075" lon="6.10515">
        <ele>434</ele>
        <time>2017-03-26T07:56:00Z</time>
      </trkpt>
      <trkpt lat="45.90737" lon="6.10518">
        <ele>434</ele>
        <time>2017-03-26T07:56:05Z</time>
      </trkpt>
      <trkpt lat="45.90723" lon="6.10523">
        <ele>434</ele>
        <time>2017-03-26T07:56:10Z</time>
      </trkpt>
      <trkpt lat="45.90707" lon="6.10529">
        <ele>434</ele>
        <time>2017-03-26T07:56:15Z</time>
      </trkpt>
      <trkpt lat="45.90693" lon="6.10539">
        <ele>435</ele>
        <time>2017-03-26T07:56:20Z</time>
      </trkpt>
      <trkpt lat="45.90681" lon="6.10557">
        <ele>436</ele>
        <time>2017-03-26T07:56:25Z</time>
      </trkpt>
      <trkpt lat="45.90673" lon="6.10578">
        <ele>436</ele>
        <time>2017-03-26T07:56:30Z</time>
      </trkpt>
      <trkpt lat="45.90671" lon="6.10601">
        <ele>437</ele>
        <time>2017-03-26T07:56:35Z</time>
      </trkpt>
      <trkpt lat="45.90669" lon="6.10624">
        <ele>438</ele>
        <time>2017-03-26T07:56:40Z</time>
      </trkpt>
      <trkpt lat="45.90664" lon="6.10645">
        <ele>438</ele>
        <time>2017-03-26T07:56:45Z</time>
      </trkpt>
      <trkpt lat="45.90653" lon="6.10661">
        <ele>439</ele>
        <time>2017-03-26T07:56:50Z</time>
      </trkpt>
      <trkpt lat="45.90644" lon="6.10667">
        <ele>439</ele>
        <time>2017-03-26T07:56:55Z</time>
      </trkpt>
      <trkpt lat="45.90639" lon="6.10671">
        <ele>439</ele>
        <time>2017-03-26T07:57:00Z</time>
      </trkpt>
      <trkpt lat="45.90623" lon="6.10673">
        <ele>439</ele>
        <time>2017-03-26T07:57:05Z</time>
      </trkpt>
      <trkpt lat="45.90606" lon="6.10668">
        <ele>439</ele>
        <time>2017-03-26T07:57:10Z</time>
      </trkpt>
      <trkpt lat="45.90586" lon="6.10662">
        <ele>438</ele>
        <time>2017-03-26T07:57:15Z</time>
      </trkpt>
      <trkpt lat="45.90573" lon="6.10641">
        <ele>437</ele>
        <time>2017-03-26T07:57:20Z</time>
      </trkpt>
      <trkpt lat="45.90558" lon="6.10637">
        <ele>437</ele>
        <time>2017-03-26T07:57:25Z</time>
      </trkpt>
      <trkpt lat="45.90543" lon="6.10627">
        <ele>438</ele>
        <time>2017-03-26T07:57:30Z</time>
      </trkpt>
      <trkpt lat="45.90526" lon="6.10623">
        <ele>438</ele>
        <time>2017-03-26T07:57:35Z</time>
      </trkpt>
      <trkpt lat="45.90512" lon="6.10627">
        <ele>439</ele>
        <time>2017-03-26T07:57:40Z</time>
      </trkpt>
      <trkpt lat="45.905" lon="6.10629">
        <ele>439</ele>
        <time>2017-03-26T07:57:45Z</time>
      </trkpt>
      <trkpt lat="45.90487" lon="6.10634">
        <ele>440</ele>
        <time>2017-03-26T07:57:50Z</time>
      </trkpt>
      <trkpt lat="45.90479" lon="6.10647">
        <ele>441</ele>
        <time>2017-03-26T07:57:55Z</time>
      </trkpt>
      <trkpt lat="45.90468" lon="6.10666">
        <ele>441</ele>
        <time>2017-03-26T07:58:00Z</time>
      </trkpt>
      <trkpt lat="45.90458" lon="6.10687">
        <ele>441</ele>
        <time>2017-03-26T07:58:05Z</time>
      </trkpt>
      <trkpt lat="45.90448" lon="6.10706">
        <ele>441</ele>
        <time>2017-03-26T07:58:10Z</time>
      </trkpt>
      <trkpt lat="45.90436" lon="6.10711">
        <ele>441</ele>
        <time>2017-03-26T07:58:15Z</time>
      </trkpt>
      <trkpt lat="45.9042" lon="6.1071">
        <ele>442</ele>
        <time>2017-03-26T07:58:20Z</time>
      </trkpt>
      <trkpt lat="45.9041" lon="6.10731">
        <ele>443</ele>
        <time>2017-03-26T07:58:25Z</time>
      </trkpt>
      <trkpt lat="45.90402" lon="6.10752">
        <ele>443</ele>
        <time>2017-03-26T07:58:30Z</time>
      </trkpt>
      <trkpt lat="45.90396" lon="6.10767">
        <ele>444</ele>
        <time>2017-03-26T07:58:35Z</time>
      </trkpt>
      <trkpt lat="45.90386" lon="6.10784">
        <ele>444</ele>
        <time>2017-03-26T07:58:40Z</time>
      </trkpt>
      <trkpt lat="45.90377" lon="6.10802">
        <ele>445</ele>
        <time>2017-03-26T07:58:45Z</time>
      </trkpt>
      <trkpt lat="45.90364" lon="6.10816">
        <ele>445</ele>
        <time>2017-03-26T07:58:50Z</time>
      </trkpt>
      <trkpt lat="45.90356" lon="6.10835">
        <ele>445</ele>
        <time>2017-03-26T07:58:55Z</time>
      </trkpt>
      <trkpt lat="45.90346" lon="6.10847">
        <ele>446</ele>
        <time>2017-03-26T07:59:00Z</time>
      </trkpt>
      <trkpt lat="45.90336" lon="6.10861">
        <ele>447</ele>
        <time>2017-03-26T07:59:05Z</time>
      </trkpt>
      <trkpt lat="45.90326" lon="6.10883">
        <ele>447</ele>
        <time>2017-03-26T07:59:10Z</time>
      </trkpt>
      <trkpt lat="45.90319" lon="6.10902">
        <ele>447</ele>
        <time>2017-03-26T07:59:15Z</time>
      </trkpt>
      <trkpt lat="45.90311" lon="6.10927">
        <ele>446</ele>
        <time>2017-03-26T07:59:20Z</time>
      </trkpt>
      <trkpt lat="45.90308" lon="6.10945">
        <ele>446</ele>
        <time>2017-03-26T07:59:25Z</time>
      </trkpt>
      <trkpt lat="45.90307" lon="6.10969">
        <ele>444</ele>
        <time>2017-03-26T07:59:30Z</time>
      </trkpt>
      <trkpt lat="45.90304" lon="6.1099">
        <ele>443</ele>
        <time>2017-03-26T07:59:35Z</time>
      </trkpt>
      <trkpt lat="45.90295" lon="6.11005">
        <ele>443</ele>
        <time>2017-03-26T07:59:40Z</time>
      </trkpt>
      <trkpt lat="45.90284" lon="6.11015">
        <ele>443</ele>
        <time>2017-03-26T07:59:45Z</time>
      </trkpt>
      <trkpt lat="45.90275" lon="6.11028">
        <ele>443</ele>
        <time>2017-03-26T07:59:50Z</time>
      </trkpt>
      <trkpt lat="45.90266" lon="6.11037">
        <ele>443</ele>
        <time>2017-03-26T07:59:55Z</time>
      </trkpt>
      <trkpt lat="45.90252" lon="6.11045">
        <ele>443</ele>
        <time>2017-03-26T08:00:00Z</time>
      </trkpt>
      <trkpt lat="45.90232" lon="6.11058">
        <ele>443</ele>
        <time>2017-03-26T08:00:05Z</time>
      </trkpt>
      <trkpt lat="45.90217" lon="6.11071">
        <ele>443</ele>
        <time>2017-03-26T08:00:10Z</time>
      </trkpt>
      <trkpt lat="45.90206" lon="6.11088">
        <ele>443</ele>
        <time>2017-03-26T08:00:15Z</time>
      </trkpt>
      <trkpt lat="45.90199" lon="6.11096">
        <ele>442</ele>
        <time>2017-03-26T08:00:20Z</time>
      </trkpt>
      <trkpt lat="45.90184" lon="6.11107">
        <ele>442</ele>
        <time>2017-03-26T08:00:25Z</time>
      </trkpt>
      <trkpt lat="45.90169" lon="6.11115">
        <ele>442</ele>
        <time>2017-03-26T08:00:30Z</time>
      </trkpt>
      <trkpt lat="45.90154" lon="6.11127">
        <ele>442</ele>
        <time>2017-03-26T08:00:35Z</time>
      </trkpt>
      <trkpt lat="45.90141" lon="6.11138">
        <ele>442</ele>
        <time>2017-03-26T08:00:40Z</time>
      </trkpt>
      <trkpt lat="45.90127" lon="6.11144">
        <ele>442</ele>
        <time>2017-03-26T08:00:45Z</time>
      </trkpt>
      <trkpt lat="45.90112" lon="6.11151">
        <ele>442</ele>
        <time>2017-03-26T08:00:50Z</time>
      </trkpt>
      <trkpt lat="45.90096" lon="6.11154">
        <ele>443</ele>
        <time>2017-03-26T08:00:55Z</time>
      </trkpt>
      <trkpt lat="45.90081" lon="6.11163">
        <ele>442</ele>
        <time>2017-03-26T08:01:00Z</time>
      </trkpt>
      <trkpt lat="45.90064" lon="6.11173">
        <ele>442</ele>
        <time>2017-03-26T08:01:05Z</time>
      </trkpt>
      <trkpt lat="45.90048" lon="6.11177">
        <ele>442</ele>
        <time>2017-03-26T08:01:10Z</time>
      </trkpt>
      <trkpt lat="45.90035" lon="6.11187">
        <ele>442</ele>
        <time>2017-03-26T08:01:15Z</time>
      </trkpt>
      <trkpt lat="45.90023" lon="6.11209">
        <ele>442</ele>
        <time>2017-03-26T08:01:20Z</time>
      </trkpt>
      <trkpt lat="45.90013" lon="6.11228">
        <ele>441</ele>
        <time>2017-03-26T08:01:25Z</time>
      </trkpt>
      <trkpt lat="45.90002" lon="6.11241">
        <ele>441</ele>
        <time>2017-03-26T08:01:30Z</time>
      </trkpt>
      <trkpt lat="45.89992" lon="6.11257">
        <ele>441</ele>
        <time>2017-03-26T08:01:35Z</time>
      </trkpt>
      <trkpt lat="45.89975" lon="6.11265">
        <ele>441</ele>
        <time>2017-03-26T08:01:40Z</time>
      </trkpt>
      <trkpt lat="45.89956" lon="6.11264">
        <ele>441</ele>
        <time>2017-03-26T08:01:45Z</time>
      </trkpt>
      <trkpt lat="45.89943" lon="6.1126">
        <ele>441</ele>
        <time>2017-03-26T08:01:50Z</time>
      </trkpt>
      <trkpt lat="45.89937" lon="6.11279">
        <ele>441</ele>
        <time>2017-03-26T08:01:55Z</time>
      </trkpt>
      <trkpt lat="45.8993" lon="6.11298">
        <ele>441</ele>
        <time>2017-03-26T08:02:00Z</time>
      </trkpt>
      <trkpt lat="45.89914" lon="6.11296">
        <ele>442</ele>
        <time>2017-03-26T08:02:05Z</time>
      </trkpt>
      <trkpt lat="45.89898" lon="6.11289">
        <ele>442</ele>
        <time>2017-03-26T08:02:10Z</time>
      </trkpt>
      <trkpt lat="45.89885" lon="6.11294">
        <ele>442</ele>
        <time>2017-03-26T08:02:15Z</time>
      </trkpt>
      <trkpt lat="45.89875" lon="6.11312">
        <ele>442</ele>
        <time>2017-03-26T08:02:20Z</time>
      </trkpt>
      <trkpt lat="45.89874" lon="6.11333">
        <ele>442</ele>
        <time>2017-03-26T08:02:25Z</time>
      </trkpt>
      <trkpt lat="45.8987" lon="6.11355">
        <ele>442</ele>
        <time>2017-03-26T08:02:30Z</time>
      </trkpt>
      <trkpt lat="45.89866" lon="6.11377">
        <ele>442</ele>
        <time>2017-03-26T08:02:35Z</time>
      </trkpt>
      <trkpt lat="45.89863" lon="6.11398">
        <ele>442</ele>
        <time>2017-03-26T08:02:40Z</time>
      </trkpt>
      <trkpt lat="45.89859" lon="6.11418">
        <ele>442</ele>
        <time>2017-03-26T08:02:45Z</time>
      </trkpt>
      <trkpt lat="45.89853" lon="6.1144">
        <ele>442</ele>
        <time>2017-03-26T08:02:50Z</time>
      </trkpt>
      <trkpt lat="45.89848" lon="6.11462">
        <ele>442</ele>
        <time>2017-03-26T08:02:55Z</time>
      </trkpt>
      <trkpt lat="45.89845" lon="6.11483">
        <ele>442</ele>
        <time>2017-03-26T08:03:00Z</time>
      </trkpt>
      <trkpt lat="45.8984" lon="6.11503">
        <ele>442</ele>
        <time>2017-03-26T08:03:05Z</time>
      </trkpt>
      <trkpt lat="45.89832" lon="6.1152">
        <ele>442</ele>
        <time>2017-03-26T08:03:10Z</time>
      </trkpt>
      <trkpt lat="45.8982" lon="6.11528">
        <ele>442</ele>
        <time>2017-03-26T08:03:15Z</time>
      </trkpt>
      <trkpt lat="45.89812" lon="6.11536">
        <ele>442</ele>
        <time>2017-03-26T08:03:20Z</time>
      </trkpt>
      <trkpt lat="45.89807" lon="6.11552">
        <ele>442</ele>
        <time>2017-03-26T08:03:25Z</time>
      </trkpt>
      <trkpt lat="45.89794" lon="6.11564">
        <ele>442</ele>
        <time>2017-03-26T08:03:30Z</time>
      </trkpt>
      <trkpt lat="45.8978" lon="6.11579">
        <ele>442</ele>
        <time>2017-03-26T08:03:35Z</time>
      </trkpt>
      <trkpt lat="45.89769" lon="6.11596">
        <ele>442</ele>
        <time>2017-03-26T08:03:40Z</time>
      </trkpt>
      <trkpt lat="45.89758" lon="6.11611">
        <ele>442</ele>
        <time>2017-03-26T08:03:45Z</time>
      </trkpt>
      <trkpt lat="45.89748" lon="6.11629">
        <ele>442</ele>
        <time>2017-03-26T08:03:50Z</time>
      </trkpt>
      <trkpt lat="45.89738" lon="6.11644">
        <ele>442</ele>
        <time>2017-03-26T08:03:55Z</time>
      </trkpt>
      <trkpt lat="45.89728" lon="6.11662">
        <ele>442</ele>
        <time>2017-03-26T08:04:00Z</time>
      </trkpt>
      <trkpt lat="45.89722" lon="6.1168">
        <ele>442</ele>
        <time>2017-03-26T08:04:05Z</time>
      </trkpt>
      <trkpt lat="45.89716" lon="6.11707">
        <ele>443</ele>
        <time>2017-03-26T08:04:10Z</time>
      </trkpt>
      <trkpt lat="45.89716" lon="6.11733">
        <ele>443</ele>
        <time>2017-03-26T08:04:15Z</time>
      </trkpt>
      <trkpt lat="45.89725" lon="6.11755">
        <ele>443</ele>
        <time>2017-03-26T08:04:20Z</time>
      </trkpt>
      <trkpt lat="45.89732" lon="6.1178">
        <ele>442</ele>
        <time>2017-03-26T08:04:25Z</time>
      </trkpt>
      <trkpt lat="45.89743" lon="6.11798">
        <ele>442</ele>
        <time>2017-03-26T08:04:30Z</time>
      </trkpt>
      <trkpt lat="45.89751" lon="6.11818">
        <ele>442</ele>
        <time>2017-03-26T08:04:35Z</time>
      </trkpt>
      <trkpt lat="45.89758" lon="6.11837">
        <ele>442</ele>
        <time>2017-03-26T08:04:40Z</time>
      </trkpt>
      <trkpt lat="45.89769" lon="6.11854">
        <ele>442</ele>
        <time>2017-03-26T08:04:45Z</time>
      </trkpt>
      <trkpt lat="45.89781" lon="6.1187">
        <ele>443</ele>
        <time>2017-03-26T08:04:50Z</time>
      </trkpt>
      <trkpt lat="45.89791" lon="6.11886">
        <ele>443</ele>
        <time>2017-03-26T08:04:55Z</time>
      </trkpt>
      <trkpt lat="45.89802" lon="6.11904">
        <ele>443</ele>
        <time>2017-03-26T08:05:00Z</time>
      </trkpt>
      <trkpt lat="45.89802" lon="6.11921">
        <ele>443</ele>
        <time>2017-03-26T08:05:05Z</time>
      </trkpt>
      <trkpt lat="45.8979" lon="6.11934">
        <ele>443</ele>
        <time>2017-03-26T08:05:10Z</time>
      </trkpt>
      <trkpt lat="45.89777" lon="6.11921">
        <ele>443</ele>
        <time>2017-03-26T08:05:15Z</time>
      </trkpt>
      <trkpt lat="45.89764" lon="6.11906">
        <ele>443</ele>
        <time>2017-03-26T08:05:20Z</time>
      </trkpt>
      <trkpt lat="45.89753" lon="6.1189">
        <ele>442</ele>
        <time>2017-03-26T08:05:25Z</time>
      </trkpt>
      <trkpt lat="45.89742" lon="6.11876">
        <ele>442</ele>
        <time>2017-03-26T08:05:30Z</time>
      </trkpt>
      <trkpt lat="45.89729" lon="6.11867">
        <ele>442</ele>
        <time>2017-03-26T08:05:35Z</time>
      </trkpt>
      <trkpt lat="45.89716" lon="6.11855">
        <ele>442</ele>
        <time>2017-03-26T08:05:40Z</time>
      </trkpt>
      <trkpt lat="45.89704" lon="6.11841">
        <ele>443</ele>
        <time>2017-03-26T08:05:45Z</time>
      </trkpt>
      <trkpt lat="45.89691" lon="6.11824">
        <ele>443</ele>
        <time>2017-03-26T08:05:50Z</time>
      </trkpt>
      <trkpt lat="45.89683" lon="6.11802">
        <ele>443</ele>
        <time>2017-03-26T08:05:55Z</time>
      </trkpt>
      <trkpt lat="45.8968" lon="6.11776">
        <ele>443</ele>
        <time>2017-03-26T08:06:00Z</time>
      </trkpt>
      <trkpt lat="45.89675" lon="6.11754">
        <ele>442</ele>
        <time>2017-03-26T08:06:05Z</time>
      </trkpt>
      <trkpt lat="45.89666" lon="6.11737">
        <ele>442</ele>
        <time>2017-03-26T08:06:10Z</time>
      </trkpt>
      <trkpt lat="45.89655" lon="6.11733">
        <ele>442</ele>
        <time>2017-03-26T08:06:15Z</time>
      </trkpt>
      <trkpt lat="45.89643" lon="6.1174">
        <ele>443</ele>
        <time>2017-03-26T08:06:20Z</time>
      </trkpt>
      <trkpt lat="45.89628" lon="6.11752">
        <ele>443</ele>
        <time>2017-03-26T08:06:25Z</time>
      </trkpt>
      <trkpt lat="45.89614" lon="6.11762">
        <ele>443</ele>
        <time>2017-03-26T08:06:30Z</time>
      </trkpt>
      <trkpt lat="45.89601" lon="6.1176">
        <ele>443</ele>
        <time>2017-03-26T08:06:35Z</time>
      </trkpt>
      <trkpt lat="45.89587" lon="6.11765">
        <ele>443</ele>
        <time>2017-03-26T08:06:40Z</time>
      </trkpt>
      <trkpt lat="45.89573" lon="6.11773">
        <ele>443</ele>
        <time>2017-03-26T08:06:45Z</time>
      </trkpt>
      <trkpt lat="45.89554" lon="6.11776">
        <ele>444</ele>
        <time>2017-03-26T08:06:50Z</time>
      </trkpt>
      <trkpt lat="45.89535" lon="6.11774">
        <ele>444</ele>
        <time>2017-03-26T08:06:55Z</time>
      </trkpt>
      <trkpt lat="45.89518" lon="6.11769">
        <ele>444</ele>
        <time>2017-03-26T08:07:00Z</time>
      </trkpt>
      <trkpt lat="45.89502" lon="6.11766">
        <ele>444</ele>
        <time>2017-03-26T08:07:05Z</time>
      </trkpt>
      <trkpt lat="45.89484" lon="6.11763">
        <ele>444</ele>
        <time>2017-03-26T08:07:10Z</time>
      </trkpt>
      <trkpt lat="45.8947" lon="6.11754">
        <ele>445</ele>
        <time>2017-03-26T08:07:15Z</time>
      </trkpt>
      <trkpt lat="45.89454" lon="6.11749">
        <ele>445</ele>
        <time>2017-03-26T08:07:20Z</time>
      </trkpt>
      <trkpt lat="45.8944" lon="6.11738">
        <ele>445</ele>
        <time>2017-03-26T08:07:25Z</time>
      </trkpt>
      <trkpt lat="45.89426" lon="6.11727">
        <ele>445</ele>
        <time>2017-03-26T08:07:30Z</time>
      </trkpt>
      <trkpt lat="45.89413" lon="6.11721">
        <ele>445</ele>
        <time>2017-03-26T08:07:35Z</time>
      </trkpt>
      <trkpt lat="45.89398" lon="6.11723">
        <ele>445</ele>
        <time>2017-03-26T08:07:40Z</time>
      </trkpt>
      <trkpt lat="45.89384" lon="6.11728">
        <ele>445</ele>
        <time>2017-03-26T08:07:45Z</time>
      </trkpt>
      <trkpt lat="45.89369" lon="6.11733">
        <ele>445</ele>
        <time>2017-03-26T08:07:50Z</time>
      </trkpt>
      <trkpt lat="45.89355" lon="6.11738">
        <ele>446</ele>
        <time>2017-03-26T08:07:55Z</time>
      </trkpt>
      <trkpt lat="45.89341" lon="6.11742">
        <ele>446</ele>
        <time>2017-03-26T08:08:00Z</time>
      </trkpt>
      <trkpt lat="45.89327" lon="6.11747">
        <ele>446</ele>
        <time>2017-03-26T08:08:05Z</time>
      </trkpt>
      <trkpt lat="45.89311" lon="6.11752">
        <ele>446</ele>
        <time>2017-03-26T08:08:10Z</time>
      </trkpt>
      <trkpt lat="45.89297" lon="6.1176">
        <ele>446</ele>
        <time>2017-03-26T08:08:15Z</time>
      </trkpt>
      <trkpt lat="45.89285" lon="6.11777">
        <ele>446</ele>
        <time>2017-03-26T08:08:20Z</time>
      </trkpt>
      <trkpt lat="45.89274" lon="6.11794">
        <ele>446</ele>
        <time>2017-03-26T08:08:25Z</time>
      </trkpt>
      <trkpt lat="45.89264" lon="6.11809">
        <ele>446</ele>
        <time>2017-03-26T08:08:30Z</time>
      </trkpt>
      <trkpt lat="45.89252" lon="6.11824">
        <ele>446</ele>
        <time>2017-03-26T08:08:35Z</time>
      </trkpt>
      <trkpt lat="45.89244" lon="6.11842">
        <ele>446</ele>
        <time>2017-03-26T08:08:40Z</time>
      </trkpt>
      <trkpt lat="45.89236" lon="6.11859">
        <ele>446</ele>
        <time>2017-03-26T08:08:45Z</time>
      </trkpt>
      <trkpt lat="45.89229" lon="6.11879">
        <ele>447</ele>
        <time>2017-03-26T08:08:50Z</time>
      </trkpt>
      <trkpt lat="45.8922" lon="6.11899">
        <ele>447</ele>
        <time>2017-03-26T08:08:55Z</time>
      </trkpt>
      <trkpt lat="45.89212" lon="6.11917">
        <ele>447</ele>
        <time>2017-03-26T08:09:00Z</time>
      </trkpt>
      <trkpt lat="45.89206" lon="6.11937">
        <ele>448</ele>
        <time>2017-03-26T08:09:05Z</time>
      </trkpt>
      <trkpt lat="45.89198" lon="6.11955">
        <ele>448</ele>
        <time>2017-03-26T08:09:10Z</time>
      </trkpt>
      <trkpt lat="45.8919" lon="6.11973">
        <ele>448</ele>
        <time>2017-03-26T08:09:15Z</time>
      </trkpt>
      <trkpt lat="45.89182" lon="6.11993">
        <ele>448</ele>
        <time>2017-03-26T08:09:20Z</time>
      </trkpt>
      <trkpt lat="45.89175" lon="6.12011">
        <ele>448</ele>
        <time>2017-03-26T08:09:25Z</time>
      </trkpt>
      <trkpt lat="45.89169" lon="6.12029">
        <ele>449</ele>
        <time>2017-03-26T08:09:30Z</time>
      </trkpt>
      <trkpt lat="45.8916" lon="6.12046">
        <ele>449</ele>
        <time>2017-03-26T08:09:35Z</time>
      </trkpt>
      <trkpt lat="45.89151" lon="6.12064">
        <ele>449</ele>
        <time>2017-03-26T08:09:40Z</time>
      </trkpt>
      <trkpt lat="45.89141" lon="6.12081">
        <ele>449</ele>
        <time>2017-03-26T08:09:45Z</time>
      </trkpt>
      <trkpt lat="45.89131" lon="6.12101">
        <ele>449</ele>
        <time>2017-03-26T08:09:50Z</time>
      </trkpt>
      <trkpt lat="45.89122" lon="6.1212">
        <ele>450</ele>
        <time>2017-03-26T08:09:55Z</time>
      </trkpt>
      <trkpt lat="45.89113" lon="6.12137">
        <ele>450</ele>
        <time>2017-03-26T08:10:00Z</time>
      </trkpt>
      <trkpt lat="45.89106" lon="6.12156">
        <ele>450</ele>
        <time>2017-03-26T08:10:05Z</time>
      </trkpt>
      <trkpt lat="45.891" lon="6.12176">
        <ele>451</ele>
        <time>2017-03-26T08:10:10Z</time>
      </trkpt>
      <trkpt lat="45.89096" lon="6.12197">
        <ele>452</ele>
        <time>2017-03-26T08:10:15Z</time>
      </trkpt>
      <trkpt lat="45.8909" lon="6.12216">
        <ele>453</ele>
        <time>2017-03-26T08:10:20Z</time>
      </trkpt>
      <trkpt lat="45.89083" lon="6.12235">
        <ele>455</ele>
        <time>2017-03-26T08:10:25Z</time>
      </trkpt>
      <trkpt lat="45.89075" lon="6.12254">
        <ele>456</ele>
        <time>2017-03-26T08:10:30Z</time>
      </trkpt>
      <trkpt lat="45.89068" lon="6.12272">
        <ele>458</ele>
        <time>2017-03-26T08:10:35Z</time>
      </trkpt>
      <trkpt lat="45.89061" lon="6.12291">
        <ele>460</ele>
        <time>2017-03-26T08:10:40Z</time>
      </trkpt>
      <trkpt lat="45.89052" lon="6.12308">
        <ele>462</ele>
        <time>2017-03-26T08:10:45Z</time>
      </trkpt>
      <trkpt lat="45.89044" lon="6.12326">
        <ele>464</ele>
        <time>2017-03-26T08:10:50Z</time>
      </trkpt>
      <trkpt lat="45.89031" lon="6.1234">
        <ele>467</ele>
        <time>2017-03-26T08:10:55Z</time>
      </trkpt>
      <trkpt lat="45.89014" lon="6.12341">
        <ele>468</ele>
        <time>2017-03-26T08:11:00Z</time>
      </trkpt>
      <trkpt lat="45.89001" lon="6.12349">
        <ele>471</ele>
        <time>2017-03-26T08:11:05Z</time>
      </trkpt>
      <trkpt lat="45.88994" lon="6.12363">
        <ele>473</ele>
        <time>2017-03-26T08:11:10Z</time>
      </trkpt>
      <trkpt lat="45.88987" lon="6.12378">
        <ele>477</ele>
        <time>2017-03-26T08:11:15Z</time>
      </trkpt>
      <trkpt lat="45.8898" lon="6.12395">
        <ele>480</ele>
        <time>2017-03-26T08:11:20Z</time>
      </trkpt>
      <trkpt lat="45.88969" lon="6.124">
        <ele>482</ele>
        <time>2017-03-26T08:11:25Z</time>
      </trkpt>
      <trkpt lat="45.88956" lon="6.12397">
        <ele>483</ele>
        <time>2017-03-26T08:11:30Z</time>
      </trkpt>
      <trkpt lat="45.88943" lon="6.12395">
        <ele>484</ele>
        <time>2017-03-26T08:11:35Z</time>
      </trkpt>
      <trkpt lat="45.88938" lon="6.12399">
        <ele>486</ele>
        <time>2017-03-26T08:11:40Z</time>
      </trkpt>
      <trkpt lat="45.88937" lon="6.12405">
        <ele>487</ele>
        <time>2017-03-26T08:11:45Z</time>
      </trkpt>
      <trkpt lat="45.88937" lon="6.12409">
        <ele>488</ele>
        <time>2017-03-26T08:11:50Z</time>
      </trkpt>
      <trkpt lat="45.88933" lon="6.1242">
        <ele>491</ele>
        <time>2017-03-26T08:11:55Z</time>
      </trkpt>
      <trkpt lat="45.88934" lon="6.12428">
        <ele>492</ele>
        <time>2017-03-26T08:12:00Z</time>
      </trkpt>
      <trkpt lat="45.88937" lon="6.12433">
        <ele>493</ele>
        <time>2017-03-26T08:12:05Z</time>
      </trkpt>
      <trkpt lat="45.88938" lon="6.12441">
        <ele>495</ele>
        <time>2017-03-26T08:12:10Z</time>
      </trkpt>
      <trkpt lat="45.88941" lon="6.12448">
        <ele>496</ele>
        <time>2017-03-26T08:12:15Z</time>
      </trkpt>
      <trkpt lat="45.88944" lon="6.12456">
        <ele>497</ele>
        <time>2017-03-26T08:12:20Z</time>
      </trkpt>
      <trkpt lat="45.88943" lon="6.12465">
        <ele>499</ele>
        <time>2017-03-26T08:12:25Z</time>
      </trkpt>
      <trkpt lat="45.88944" lon="6.12473">
        <ele>501</ele>
        <time>2017-03-26T08:12:30Z</time>
      </trkpt>
      <trkpt lat="45.88945" lon="6.1248">
        <ele>502</ele>
        <time>2017-03-26T08:12:35Z</time>
      </trkpt>
      <trkpt lat="45.88947" lon="6.12486">
        <ele>503</ele>
        <time>2017-03-26T08:12:40Z</time>
      </trkpt>
      <trkpt lat="45.8895" lon="6.12492">
        <ele>504</ele>
        <time>2017-03-26T08:12:45Z</time>
      </trkpt>
      <trkpt lat="45.88951" lon="6.12498">
        <ele>505</ele>
        <time>2017-03-26T08:12:50Z</time>
      </trkpt>
      <trkpt lat="45.88952" lon="6.12502">
        <ele>506</ele>
        <time>2017-03-26T08:12:55Z</time>
      </trkpt>
      <trkpt lat="45.88954" lon="6.12506">
        <ele>506</ele>
        <time>2017-03-26T08:13:00Z</time>
      </trkpt>
      <trkpt lat="45.88958" lon="6.12508">
        <ele>506</ele>
        <time>2017-03-26T08:13:05Z</time>
      </trkpt>
      <trkpt lat="45.88961" lon="6.12511">
        <ele>506</ele>
        <time>2017-03-26T08:13:10Z</time>
      </trkpt>
      <trkpt lat="45.88959" lon="6.1252">
        <ele>508</ele>
        <time>2017-03-26T08:13:15Z</time>
      </trkpt>
      <trkpt lat="45.8896" lon="6.12524">
        <ele>508</ele>
        <time>2017-03-26T08:13:20Z</time>
      </trkpt>
      <trkpt lat="45.8896" lon="6.12532">
        <ele>510</ele>
        <time>2017-03-26T08:13:25Z</time>
      </trkpt>
      <trkpt lat="45.88958" lon="6.12537">
        <ele>511</ele>
        <time>2017-03-26T08:13:30Z</time>
      </trkpt>
      <trkpt lat="45.8896" lon="6.12543">
        <ele>512</ele>
        <time>2017-03-26T08:13:35Z</time>
      </trkpt>
      <trkpt lat="45.88962" lon="6.12548">
        <ele>512</ele>
        <time>2017-03-26T08:13:40Z</time>
      </trkpt>
      <trkpt lat="45.88964" lon="6.12554">
        <ele>513</ele>
        <time>2017-03-26T08:13:45Z</time>
      </trkpt>
      <trkpt lat="45.88963" lon="6.12561">
        <ele>514</ele>
        <time>2017-03-26T08:13:50Z</time>
      </trkpt>
      <trkpt lat="45.88965" lon="6.12566">
        <ele>515</ele>
        <time>2017-03-26T08:13:55Z</time>
      </trkpt>
      <trkpt lat="45.88966" lon="6.1257">
        <ele>516</ele>
        <time>2017-03-26T08:14:00Z</time>
      </trkpt>
      <trkpt lat="45.88968" lon="6.12575">
        <ele>517</ele>
        <time>2017-03-26T08:14:05Z</time>
      </trkpt>
      <trkpt lat="45.8897" lon="6.12579">
        <ele>517</ele>
        <time>2017-03-26T08:14:10Z</time>
      </trkpt>
      <trkpt lat="45.8897" lon="6.12583">
        <ele>518</ele>
        <time>2017-03-26T08:14:15Z</time>
      </trkpt>
      <trkpt lat="45.88971" lon="6.12588">
        <ele>518</ele>
        <time>2017-03-26T08:14:20Z</time>
      </trkpt>
      <trkpt lat="45.8897" lon="6.12592">
        <ele>519</ele>
        <time>2017-03-26T08:14:25Z</time>
      </trkpt>
      <trkpt lat="45.8897" lon="6.12596">
        <ele>520</ele>
        <time>2017-03-26T08:14:30Z</time>
      </trkpt>
      <trkpt lat="45.88973" lon="6.12602">
        <ele>521</ele>
        <time>2017-03-26T08:14:35Z</time>
      </trkpt>
      <trkpt lat="45.88978" lon="6.12608">
        <ele>521</ele>
        <time>2017-03-26T08:14:40Z</time>
      </trkpt>
      <trkpt lat="45.88982" lon="6.12611">
        <ele>521</ele>
        <time>2017-03-26T08:14:45Z</time>
      </trkpt>
      <trkpt lat="45.88985" lon="6.12613">
        <ele>521</ele>
        <time>2017-03-26T08:14:50Z</time>
      </trkpt>
      <trkpt lat="45.88987" lon="6.12617">
        <ele>521</ele>
        <time>2017-03-26T08:14:55Z</time>
      </trkpt>
      <trkpt lat="45.88988" lon="6.1262">
        <ele>521</ele>
        <time>2017-03-26T08:15:00Z</time>
      </trkpt>
      <trkpt lat="45.88991" lon="6.12623">
        <ele>521</ele>
        <time>2017-03-26T08:15:05Z</time>
      </trkpt>
      <trkpt lat="45.88995" lon="6.12627">
        <ele>521</ele>
        <time>2017-03-26T08:15:10Z</time>
      </trkpt>
      <trkpt lat="45.89" lon="6.1263">
        <ele>520</ele>
        <time>2017-03-26T08:15:15Z</time>
      </trkpt>
      <trkpt lat="45.89004" lon="6.12636">
        <ele>520</ele>
        <time>2017-03-26T08:15:20Z</time>
      </trkpt>
      <trkpt lat="45.89005" lon="6.12642">
        <ele>521</ele>
        <time>2017-03-26T08:15:25Z</time>
      </trkpt>
      <trkpt lat="45.89007" lon="6.12648">
        <ele>521</ele>
        <time>2017-03-26T08:15:30Z</time>
      </trkpt>
      <trkpt lat="45.89008" lon="6.12654">
        <ele>522</ele>
        <time>2017-03-26T08:15:35Z</time>
      </trkpt>
      <trkpt lat="45.89008" lon="6.12661">
        <ele>523</ele>
        <time>2017-03-26T08:15:40Z</time>
      </trkpt>
      <trkpt lat="45.89008" lon="6.12668">
        <ele>524</ele>
        <time>2017-03-26T08:15:45Z</time>
      </trkpt>
      <trkpt lat="45.89005" lon="6.12677">
        <ele>526</ele>
        <time>2017-03-26T08:15:50Z</time>
      </trkpt>
      <trkpt lat="45.89005" lon="6.12696">
        <ele>529</ele>
        <time>2017-03-26T08:15:55Z</time>
      </trkpt>
      <trkpt lat="45.89004" lon="6.12715">
        <ele>532</ele>
        <time>2017-03-26T08:16:00Z</time>
      </trkpt>
      <trkpt lat="45.89003" lon="6.12731">
        <ele>535</ele>
        <time>2017-03-26T08:16:05Z</time>
      </trkpt>
      <trkpt lat="45.89004" lon="6.12748">
        <ele>537</ele>
        <time>2017-03-26T08:16:10Z</time>
      </trkpt>
      <trkpt lat="45.89005" lon="6.12766">
        <ele>540</ele>
        <time>2017-03-26T08:16:15Z</time>
      </trkpt>
      <trkpt lat="45.89004" lon="6.12784">
        <ele>542</ele>
        <time>2017-03-26T08:16:20Z</time>
      </trkpt>
      <trkpt lat="45.89004" lon="6.12801">
        <ele>545</ele>
        <time>2017-03-26T08:16:25Z</time>
      </trkpt>
      <trkpt lat="45.89003" lon="6.12816">
        <ele>547</ele>
        <time>2017-03-26T08:16:30Z</time>
      </trkpt>
      <trkpt lat="45.89008" lon="6.12831">
        <ele>548</ele>
        <time>2017-03-26T08:16:35Z</time>
      </trkpt>
      <trkpt lat="45.89022" lon="6.12841">
        <ele>546</ele>
        <time>2017-03-26T08:16:40Z</time>
      </trkpt>
      <trkpt lat="45.89036" lon="6.12834">
        <ele>542</ele>
        <time>2017-03-26T08:16:45Z</time>
      </trkpt>
      <trkpt lat="45.89048" lon="6.12819">
        <ele>536</ele>
        <time>2017-03-26T08:16:50Z</time>
      </trkpt>
      <trkpt lat="45.89062" lon="6.12802">
        <ele>531</ele>
        <time>2017-03-26T08:16:55Z</time>
      </trkpt>
      <trkpt lat="45.89076" lon="6.12785">
        <ele>527</ele>
        <time>2017-03-26T08:17:00Z</time>
      </trkpt>
      <trkpt lat="45.89091" lon="6.12769">
        <ele>524</ele>
        <time>2017-03-26T08:17:05Z</time>
      </trkpt>
      <trkpt lat="45.89106" lon="6.12751">
        <ele>520</ele>
        <time>2017-03-26T08:17:10Z</time>
      </trkpt>
      <trkpt lat="45.8912" lon="6.12733">
        <ele>516</ele>
        <time>2017-03-26T08:17:15Z</time>
      </trkpt>
      <trkpt lat="45.89135" lon="6.12717">
        <ele>513</ele>
        <time>2017-03-26T08:17:20Z</time>
      </trkpt>
      <trkpt lat="45.89149" lon="6.127">
        <ele>510</ele>
        <time>2017-03-26T08:17:25Z</time>
      </trkpt>
      <trkpt lat="45.89163" lon="6.12685">
        <ele>508</ele>
        <time>2017-03-26T08:17:30Z</time>
      </trkpt>
      <trkpt lat="45.89179" lon="6.12676">
        <ele>506</ele>
        <time>2017-03-26T08:17:35Z</time>
      </trkpt>
      <trkpt lat="45.89194" lon="6.12674">
        <ele>505</ele>
        <time>2017-03-26T08:17:40Z</time>
      </trkpt>
      <trkpt lat="45.8921" lon="6.12674">
        <ele>504</ele>
        <time>2017-03-26T08:17:45Z</time>
      </trkpt>
      <trkpt lat="45.89225" lon="6.12673">
        <ele>503</ele>
        <time>2017-03-26T08:17:50Z</time>
      </trkpt>
      <trkpt lat="45.8924" lon="6.12671">
        <ele>501</ele>
        <time>2017-03-26T08:17:55Z</time>
      </trkpt>
      <trkpt lat="45.89257" lon="6.12669">
        <ele>500</ele>
        <time>2017-03-26T08:18:00Z</time>
      </trkpt>
      <trkpt lat="45.89273" lon="6.12669">
        <ele>498</ele>
        <time>2017-03-26T08:18:05Z</time>
      </trkpt>
      <trkpt lat="45.8929" lon="6.12671">
        <ele>495</ele>
        <time>2017-03-26T08:18:10Z</time>
      </trkpt>
      <trkpt lat="45.89303" lon="6.12671">
        <ele>492</ele>
        <time>2017-03-26T08:18:15Z</time>
      </trkpt>
      <trkpt lat="45.89315" lon="6.12674">
        <ele>490</ele>
        <time>2017-03-26T08:18:20Z</time>
      </trkpt>
      <trkpt lat="45.89326" lon="6.12683">
        <ele>489</ele>
        <time>2017-03-26T08:18:25Z</time>
      </trkpt>
      <trkpt lat="45.89334" lon="6.12692">
        <ele>488</ele>
        <time>2017-03-26T08:18:30Z</time>
      </trkpt>
      <trkpt lat="45.89328" lon="6.12718">
        <ele>490</ele>
        <time>2017-03-26T08:18:35Z</time>
      </trkpt>
      <trkpt lat="45.89331" lon="6.12738">
        <ele>490</ele>
        <time>2017-03-26T08:18:40Z</time>
      </trkpt>
      <trkpt lat="45.89349" lon="6.12745">
        <ele>488</ele>
        <time>2017-03-26T08:18:45Z</time>
      </trkpt>
      <trkpt lat="45.89366" lon="6.12755">
        <ele>486</ele>
        <time>2017-03-26T08:18:50Z</time>
      </trkpt>
      <trkpt lat="45.89376" lon="6.12772">
        <ele>485</ele>
        <time>2017-03-26T08:18:55Z</time>
      </trkpt>
      <trkpt lat="45.89368" lon="6.12787">
        <ele>486</ele>
        <time>2017-03-26T08:19:00Z</time>
      </trkpt>
      <trkpt lat="45.89359" lon="6.12798">
        <ele>487</ele>
        <time>2017-03-26T08:19:05Z</time>
      </trkpt>
      <trkpt lat="45.8935" lon="6.12811">
        <ele>489</ele>
        <time>2017-03-26T08:19:10Z</time>
      </trkpt>
      <trkpt lat="45.89341" lon="6.12822">
        <ele>490</ele>
        <time>2017-03-26T08:19:15Z</time>
      </trkpt>
      <trkpt lat="45.89332" lon="6.12837">
        <ele>492</ele>
        <time>2017-03-26T08:19:20Z</time>
      </trkpt>
      <trkpt lat="45.89325" lon="6.12852">
        <ele>494</ele>
        <time>2017-03-26T08:19:25Z</time>
      </trkpt>
      <trkpt lat="45.89322" lon="6.12866">
        <ele>495</ele>
        <time>2017-03-26T08:19:30Z</time>
      </trkpt>
      <trkpt lat="45.89315" lon="6.12879">
        <ele>497</ele>
        <time>2017-03-26T08:19:35Z</time>
      </trkpt>
      <trkpt lat="45.89311" lon="6.12888">
        <ele>499</ele>
        <time>2017-03-26T08:19:40Z</time>
      </trkpt>
      <trkpt lat="45.89309" lon="6.12892">
        <ele>499</ele>
        <time>2017-03-26T08:19:45Z</time>
      </trkpt>
      <trkpt lat="45.89308" lon="6.12895">
        <ele>499</ele>
        <time>2017-03-26T08:19:50Z</time>
      </trkpt>
      <trkpt lat="45.89306" lon="6.12899">
        <ele>500</ele>
        <time>2017-03-26T08:19:55Z</time>
      </trkpt>
      <trkpt lat="45.89302" lon="6.12905">
        <ele>501</ele>
        <time>2017-03-26T08:20:00Z</time>
      </trkpt>
      <trkpt lat="45.893" lon="6.12913">
        <ele>502</ele>
        <time>2017-03-26T08:20:05Z</time>
      </trkpt>
      <trkpt lat="45.89296" lon="6.12922">
        <ele>503</ele>
        <time>2017-03-26T08:20:10Z</time>
      </trkpt>
      <trkpt lat="45.89294" lon="6.12927">
        <ele>504</ele>
        <time>2017-03-26T08:20:15Z</time>
      </trkpt>
      <trkpt lat="45.89291" lon="6.12934">
        <ele>505</ele>
        <time>2017-03-26T08:20:20Z</time>
      </trkpt>
      <trkpt lat="45.89285" lon="6.1294">
        <ele>506</ele>
        <time>2017-03-26T08:20:25Z</time>
      </trkpt>
      <trkpt lat="45.89278" lon="6.12947">
        <ele>509</ele>
        <time>2017-03-26T08:20:30Z</time>
      </trkpt>
      <trkpt lat="45.89274" lon="6.12953">
        <ele>510</ele>
        <time>2017-03-26T08:20:35Z</time>
      </trkpt>
      <trkpt lat="45.89272" lon="6.12957">
        <ele>510</ele>
        <time>2017-03-26T08:20:40Z</time>
      </trkpt>
      <trkpt lat="45.89269" lon="6.12962">
        <ele>511</ele>
        <time>2017-03-26T08:20:45Z</time>
      </trkpt>
      <trkpt lat="45.89267" lon="6.12968">
        <ele>512</ele>
        <time>2017-03-26T08:20:50Z</time>
      </trkpt>
      <trkpt lat="45.89263" lon="6.12972">
        <ele>513</ele>
        <time>2017-03-26T08:20:55Z</time>
      </trkpt>
      <trkpt lat="45.89258" lon="6.12974">
        <ele>514</ele>
        <time>2017-03-26T08:21:00Z</time>
      </trkpt>
      <trkpt lat="45.89253" lon="6.12976">
        <ele>515</ele>
        <time>2017-03-26T08:21:05Z</time>
      </trkpt>
      <trkpt lat="45.89249" lon="6.12977">
        <ele>516</ele>
        <time>2017-03-26T08:21:10Z</time>
      </trkpt>
      <trkpt lat="45.89246" lon="6.12978">
        <ele>517</ele>
        <time>2017-03-26T08:21:15Z</time>
      </trkpt>
      <trkpt lat="45.8924" lon="6.1298">
        <ele>518</ele>
        <time>2017-03-26T08:21:20Z</time>
      </trkpt>
      <trkpt lat="45.89233" lon="6.12981">
        <ele>520</ele>
        <time>2017-03-26T08:21:25Z</time>
      </trkpt>
      <trkpt lat="45.89226" lon="6.12985">
        <ele>522</ele>
        <time>2017-03-26T08:21:30Z</time>
      </trkpt>
      <trkpt lat="45.89221" lon="6.12988">
        <ele>523</ele>
        <time>2017-03-26T08:21:35Z</time>
      </trkpt>
      <trkpt lat="45.89218" lon="6.1299">
        <ele>524</ele>
        <time>2017-03-26T08:21:40Z</time>
      </trkpt>
      <trkpt lat="45.89213" lon="6.12991">
        <ele>525</ele>
        <time>2017-03-26T08:21:45Z</time>
      </trkpt>
      <trkpt lat="45.89205" lon="6.12994">
        <ele>527</ele>
        <time>2017-03-26T08:21:50Z</time>
      </trkpt>
      <trkpt lat="45.892" lon="6.12996">
        <ele>528</ele>
        <time>2017-03-26T08:21:55Z</time>
      </trkpt>
      <trkpt lat="45.89196" lon="6.12999">
        <ele>529</ele>
        <time>2017-03-26T08:22:00Z</time>
      </trkpt>
      <trkpt lat="45.89193" lon="6.13">
        <ele>529</ele>
        <time>2017-03-26T08:22:05Z</time>
      </trkpt>
      <trkpt lat="45.89189" lon="6.13001">
        <ele>530</ele>
        <time>2017-03-26T08:22:10Z</time>
      </trkpt>
      <trkpt lat="45.89186" lon="6.13004">
        <ele>531</ele>
        <time>2017-03-26T08:22:15Z</time>
      </trkpt>
      <trkpt lat="45.8918" lon="6.13009">
        <ele>532</ele>
        <time>2017-03-26T08:22:20Z</time>
      </trkpt>
      <trkpt lat="45.89166" lon="6.13017">
        <ele>534</ele>
        <time>2017-03-26T08:22:25Z</time>
      </trkpt>
      <trkpt lat="45.89151" lon="6.13025">
        <ele>537</ele>
        <time>2017-03-26T08:22:30Z</time>
      </trkpt>
      <trkpt lat="45.89135" lon="6.13034">
        <ele>540</ele>
        <time>2017-03-26T08:22:35Z</time>
      </trkpt>
      <trkpt lat="45.8912" lon="6.13042">
        <ele>543</ele>
        <time>2017-03-26T08:22:40Z</time>
      </trkpt>
      <trkpt lat="45.89106" lon="6.13048">
        <ele>545</ele>
        <time>2017-03-26T08:22:45Z</time>
      </trkpt>
      <trkpt lat="45.8909" lon="6.13053">
        <ele>547</ele>
        <time>2017-03-26T08:22:50Z</time>
      </trkpt>
      <trkpt lat="45.89075" lon="6.13051">
        <ele>550</ele>
        <time>2017-03-26T08:22:55Z</time>
      </trkpt>
      <trkpt lat="45.89061" lon="6.13042">
        <ele>552</ele>
        <time>2017-03-26T08:23:00Z</time>
      </trkpt>
      <trkpt lat="45.89049" lon="6.13034">
        <ele>555</ele>
        <time>2017-03-26T08:23:05Z</time>
      </trkpt>
      <trkpt lat="45.89038" lon="6.13031">
        <ele>556</ele>
        <time>2017-03-26T08:23:10Z</time>
      </trkpt>
      <trkpt lat="45.89032" lon="6.13039">
        <ele>557</ele>
        <time>2017-03-26T08:23:15Z</time>
      </trkpt>
      <trkpt lat="45.89031" lon="6.1306">
        <ele>557</ele>
        <time>2017-03-26T08:23:20Z</time>
      </trkpt>
      <trkpt lat="45.89029" lon="6.13085">
        <ele>556</ele>
        <time>2017-03-26T08:23:25Z</time>
      </trkpt>
      <trkpt lat="45.89028" lon="6.13108">
        <ele>555</ele>
        <time>2017-03-26T08:23:30Z</time>
      </trkpt>
      <trkpt lat="45.89029" lon="6.1313">
        <ele>552</ele>
        <time>2017-03-26T08:23:35Z</time>
      </trkpt>
      <trkpt lat="45.89026" lon="6.13156">
        <ele>550</ele>
        <time>2017-03-26T08:23:40Z</time>
      </trkpt>
      <trkpt lat="45.89022" lon="6.13183">
        <ele>548</ele>
        <time>2017-03-26T08:23:45Z</time>
      </trkpt>
      <trkpt lat="45.8902" lon="6.13209">
        <ele>546</ele>
        <time>2017-03-26T08:23:50Z</time>
      </trkpt>
      <trkpt lat="45.89017" lon="6.13233">
        <ele>544</ele>
        <time>2017-03-26T08:23:55Z</time>
      </trkpt>
      <trkpt lat="45.89013" lon="6.13262">
        <ele>541</ele>
        <time>2017-03-26T08:24:00Z</time>
      </trkpt>
      <trkpt lat="45.89009" lon="6.13278">
        <ele>539</ele>
        <time>2017-03-26T08:24:05Z</time>
      </trkpt>
      <trkpt lat="45.89008" lon="6.13297">
        <ele>536</ele>
        <time>2017-03-26T08:24:10Z</time>
      </trkpt>
      <trkpt lat="45.89005" lon="6.13314">
        <ele>534</ele>
        <time>2017-03-26T08:24:15Z</time>
      </trkpt>
      <trkpt lat="45.89014" lon="6.13326">
        <ele>531</ele>
        <time>2017-03-26T08:24:20Z</time>
      </trkpt>
      <trkpt lat="45.89024" lon="6.13337">
        <ele>527</ele>
        <time>2017-03-26T08:24:25Z</time>
      </trkpt>
      <trkpt lat="45.89025" lon="6.13359">
        <ele>523</ele>
        <time>2017-03-26T08:24:30Z</time>
      </trkpt>
      <trkpt lat="45.89024" lon="6.1338">
        <ele>519</ele>
        <time>2017-03-26T08:24:35Z</time>
      </trkpt>
      <trkpt lat="45.89025" lon="6.13403">
        <ele>515</ele>
        <time>2017-03-26T08:24:40Z</time>
      </trkpt>
      <trkpt lat="45.89029" lon="6.13425">
        <ele>510</ele>
        <time>2017-03-26T08:24:45Z</time>
      </trkpt>
      <trkpt lat="45.89032" lon="6.13441">
        <ele>506</ele>
        <time>2017-03-26T08:24:50Z</time>
      </trkpt>
      <trkpt lat="45.89036" lon="6.13453">
        <ele>502</ele>
        <time>2017-03-26T08:24:55Z</time>
      </trkpt>
      <trkpt lat="45.89046" lon="6.1345">
        <ele>501</ele>
        <time>2017-03-26T08:25:00Z</time>
      </trkpt>
      <trkpt lat="45.89059" lon="6.13448">
        <ele>498</ele>
        <time>2017-03-26T08:25:05Z</time>
      </trkpt>
      <trkpt lat="45.89074" lon="6.13447">
        <ele>495</ele>
        <time>2017-03-26T08:25:10Z</time>
      </trkpt>
      <trkpt lat="45.89085" lon="6.13444">
        <ele>494</ele>
        <time>2017-03-26T08:25:15Z</time>
      </trkpt>
      <trkpt lat="45.89098" lon="6.13449">
        <ele>490</ele>
        <time>2017-03-26T08:25:20Z</time>
      </trkpt>
      <trkpt lat="45.89106" lon="6.13454">
        <ele>488</ele>
        <time>2017-03-26T08:25:25Z</time>
      </trkpt>
      <trkpt lat="45.89109" lon="6.13451">
        <ele>488</ele>
        <time>2017-03-26T08:25:30Z</time>
      </trkpt>
      <trkpt lat="45.89112" lon="6.13459">
        <ele>486</ele>
        <time>2017-03-26T08:25:35Z</time>
      </trkpt>
      <trkpt lat="45.89117" lon="6.13466">
        <ele>483</ele>
        <time>2017-03-26T08:25:40Z</time>
      </trkpt>
      <trkpt lat="45.89118" lon="6.13478">
        <ele>481</ele>
        <time>2017-03-26T08:25:45Z</time>
      </trkpt>
      <trkpt lat="45.8912" lon="6.1349">
        <ele>478</ele>
        <time>2017-03-26T08:25:50Z</time>
      </trkpt>
      <trkpt lat="45.8912" lon="6.13502">
        <ele>476</ele>
        <time>2017-03-26T08:25:55Z</time>
      </trkpt>
      <trkpt lat="45.89121" lon="6.13521">
        <ele>472</ele>
        <time>2017-03-26T08:26:00Z</time>
      </trkpt>
      <trkpt lat="45.89123" lon="6.13537">
        <ele>469</ele>
        <time>2017-03-26T08:26:05Z</time>
      </trkpt>
      <trkpt lat="45.89123" lon="6.13554">
        <ele>466</ele>
        <time>2017-03-26T08:26:10Z</time>
      </trkpt>
      <trkpt lat="45.89124" lon="6.13571">
        <ele>463</ele>
        <time>2017-03-26T08:26:15Z</time>
      </trkpt>
      <trkpt lat="45.89114" lon="6.13584">
        <ele>462</ele>
        <time>2017-03-26T08:26:20Z</time>
      </trkpt>
      <trkpt lat="45.89107" lon="6.13598">
        <ele>461</ele>
        <time>2017-03-26T08:26:25Z</time>
      </trkpt>
      <trkpt lat="45.89102" lon="6.13615">
        <ele>460</ele>
        <time>2017-03-26T08:26:30Z</time>
      </trkpt>
      <trkpt lat="45.89092" lon="6.13631">
        <ele>459</ele>
        <time>2017-03-26T08:26:35Z</time>
      </trkpt>
      <trkpt lat="45.89084" lon="6.13642">
        <ele>458</ele>
        <time>2017-03-26T08:26:40Z</time>
      </trkpt>
      <trkpt lat="45.89071" lon="6.1365">
        <ele>459</ele>
        <time>2017-03-26T08:26:45Z</time>
      </trkpt>
      <trkpt lat="45.89058" lon="6.13663">
        <ele>458</ele>
        <time>2017-03-26T08:26:50Z</time>
      </trkpt>
      <trkpt lat="45.89048" lon="6.13673">
        <ele>459</ele>
        <time>2017-03-26T08:26:55Z</time>
      </trkpt>
      <trkpt lat="45.89038" lon="6.13683">
        <ele>460</ele>
        <time>2017-03-26T08:27:00Z</time>
      </trkpt>
      <trkpt lat="45.89038" lon="6.13699">
        <ele>458</ele>
        <time>2017-03-26T08:27:05Z</time>
      </trkpt>
      <trkpt lat="45.89048" lon="6.13714">
        <ele>456</ele>
        <time>2017-03-26T08:27:10Z</time>
      </trkpt>
      <trkpt lat="45.89052" lon="6.13734">
        <ele>454</ele>
        <time>2017-03-26T08:27:15Z</time>
      </trkpt>
      <trkpt lat="45.89059" lon="6.13747">
        <ele>453</ele>
        <time>2017-03-26T08:27:20Z</time>
      </trkpt>
      <trkpt lat="45.89064" lon="6.13761">
        <ele>453</ele>
        <time>2017-03-26T08:27:25Z</time>
      </trkpt>
      <trkpt lat="45.89071" lon="6.13778">
        <ele>452</ele>
        <time>2017-03-26T08:27:30Z</time>
      </trkpt>
      <trkpt lat="45.89066" lon="6.13796">
        <ele>451</ele>
        <time>2017-03-26T08:27:35Z</time>
      </trkpt>
      <trkpt lat="45.89075" lon="6.13811">
        <ele>451</ele>
        <time>2017-03-26T08:27:40Z</time>
      </trkpt>
      <trkpt lat="45.89087" lon="6.13826">
        <ele>450</ele>
        <time>2017-03-26T08:27:45Z</time>
      </trkpt>
      <trkpt lat="45.89101" lon="6.13843">
        <ele>449</ele>
        <time>2017-03-26T08:27:50Z</time>
      </trkpt>
      <trkpt lat="45.89113" lon="6.13858">
        <ele>448</ele>
        <time>2017-03-26T08:27:55Z</time>
      </trkpt>
      <trkpt lat="45.89126" lon="6.13875">
        <ele>448</ele>
        <time>2017-03-26T08:28:00Z</time>
      </trkpt>
      <trkpt lat="45.89141" lon="6.13891">
        <ele>447</ele>
        <time>2017-03-26T08:28:05Z</time>
      </trkpt>
      <trkpt lat="45.89156" lon="6.13896">
        <ele>447</ele>
        <time>2017-03-26T08:28:10Z</time>
      </trkpt>
      <trkpt lat="45.8917" lon="6.13898">
        <ele>447</ele>
        <time>2017-03-26T08:28:15Z</time>
      </trkpt>
      <trkpt lat="45.8918" lon="6.1388">
        <ele>446</ele>
        <time>2017-03-26T08:28:20Z</time>
      </trkpt>
      <trkpt lat="45.89191" lon="6.13863">
        <ele>446</ele>
        <time>2017-03-26T08:28:25Z</time>
      </trkpt>
      <trkpt lat="45.89202" lon="6.13846">
        <ele>446</ele>
        <time>2017-03-26T08:28:30Z</time>
      </trkpt>
      <trkpt lat="45.89216" lon="6.13825">
        <ele>446</ele>
        <time>2017-03-26T08:28:35Z</time>
      </trkpt>
      <trkpt lat="45.89225" lon="6.13811">
        <ele>446</ele>
        <time>2017-03-26T08:28:40Z</time>
      </trkpt>
      <trkpt lat="45.89236" lon="6.13795">
        <ele>446</ele>
        <time>2017-03-26T08:28:45Z</time>
      </trkpt>
      <trkpt lat="45.89247" lon="6.13779">
        <ele>446</ele>
        <time>2017-03-26T08:28:50Z</time>
      </trkpt>
      <trkpt lat="45.89259" lon="6.13762">
        <ele>446</ele>
        <time>2017-03-26T08:28:55Z</time>
      </trkpt>
      <trkpt lat="45.89268" lon="6.13741">
        <ele>446</ele>
        <time>2017-03-26T08:29:00Z</time>
      </trkpt>
      <trkpt lat="45.8928" lon="6.13724">
        <ele>446</ele>
        <time>2017-03-26T08:29:05Z</time>
      </trkpt>
      <trkpt lat="45.89289" lon="6.137">
        <ele>446</ele>
        <time>2017-03-26T08:29:10Z</time>
      </trkpt>
      <trkpt lat="45.89299" lon="6.13679">
        <ele>446</ele>
        <time>2017-03-26T08:29:15Z</time>
      </trkpt>
      <trkpt lat="45.89311" lon="6.13661">
        <ele>447</ele>
        <time>2017-03-26T08:29:20Z</time>
      </trkpt>
      <trkpt lat="45.89323" lon="6.13644">
        <ele>446</ele>
        <time>2017-03-26T08:29:25Z</time>
      </trkpt>
      <trkpt lat="45.89337" lon="6.1363">
        <ele>446</ele>
        <time>2017-03-26T08:29:30Z</time>
      </trkpt>
      <trkpt lat="45.89348" lon="6.1361">
        <ele>446</ele>
        <time>2017-03-26T08:29:35Z</time>
      </trkpt>
      <trkpt lat="45.89361" lon="6.1359">
        <ele>447</ele>
        <time>2017-03-26T08:29:40Z</time>
      </trkpt>
      <trkpt lat="45.89371" lon="6.13575">
        <ele>447</ele>
        <time>2017-03-26T08:29:45Z</time>
      </trkpt>
      <trkpt lat="45.89382" lon="6.13559">
        <ele>447</ele>
        <time>2017-03-26T08:29:50Z</time>
      </trkpt>
      <trkpt lat="45.89396" lon="6.13545">
        <ele>447</ele>
        <time>2017-03-26T08:29:55Z</time>
      </trkpt>
      <trkpt lat="45.89408" lon="6.13531">
        <ele>447</ele>
        <time>2017-03-26T08:30:00Z</time>
      </trkpt>
      <trkpt lat="45.8942" lon="6.13516">
        <ele>447</ele>
        <time>2017-03-26T08:30:05Z</time>
      </trkpt>
      <trkpt lat="45.89429" lon="6.13498">
        <ele>447</ele>
        <time>2017-03-26T08:30:10Z</time>
      </trkpt>
      <trkpt lat="45.8944" lon="6.1348">
        <ele>447</ele>
        <time>2017-03-26T08:30:15Z</time>
      </trkpt>
      <trkpt lat="45.89452" lon="6.13464">
        <ele>447</ele>
        <time>2017-03-26T08:30:20Z</time>
      </trkpt>
      <trkpt lat="45.89469" lon="6.13469">
        <ele>447</ele>
        <time>2017-03-26T08:30:25Z</time>
      </trkpt>
      <trkpt lat="45.89483" lon="6.13459">
        <ele>447</ele>
        <time>2017-03-26T08:30:30Z</time>
      </trkpt>
      <trkpt lat="45.89496" lon="6.1345">
        <ele>447</ele>
        <time>2017-03-26T08:30:35Z</time>
      </trkpt>
      <trkpt lat="45.89509" lon="6.13439">
        <ele>447</ele>
        <time>2017-03-26T08:30:40Z</time>
      </trkpt>
      <trkpt lat="45.89523" lon="6.1343">
        <ele>447</ele>
        <time>2017-03-26T08:30:45Z</time>
      </trkpt>
      <trkpt lat="45.89537" lon="6.13419">
        <ele>446</ele>
        <time>2017-03-26T08:30:50Z</time>
      </trkpt>
      <trkpt lat="45.89549" lon="6.13409">
        <ele>446</ele>
        <time>2017-03-26T08:30:55Z</time>
      </trkpt>
      <trkpt lat="45.89565" lon="6.13401">
        <ele>446</ele>
        <time>2017-03-26T08:31:00Z</time>
      </trkpt>
      <trkpt lat="45.89582" lon="6.13398">
        <ele>446</ele>
        <time>2017-03-26T08:31:05Z</time>
      </trkpt>
      <trkpt lat="45.89599" lon="6.13411">
        <ele>446</ele>
        <time>2017-03-26T08:31:10Z</time>
      </trkpt>
      <trkpt lat="45.89609" lon="6.13431">
        <ele>445</ele>
        <time>2017-03-26T08:31:15Z</time>
      </trkpt>
      <trkpt lat="45.89617" lon="6.13448">
        <ele>445</ele>
        <time>2017-03-26T08:31:20Z</time>
      </trkpt>
      <trkpt lat="45.89628" lon="6.13468">
        <ele>445</ele>
        <time>2017-03-26T08:31:25Z</time>
      </trkpt>
      <trkpt lat="45.89642" lon="6.13483">
        <ele>445</ele>
        <time>2017-03-26T08:31:30Z</time>
      </trkpt>
      <trkpt lat="45.89654" lon="6.13473">
        <ele>445</ele>
        <time>2017-03-26T08:31:35Z</time>
      </trkpt>
      <trkpt lat="45.89663" lon="6.1346">
        <ele>445</ele>
        <time>2017-03-26T08:31:40Z</time>
      </trkpt>
      <trkpt lat="45.89675" lon="6.13444">
        <ele>445</ele>
        <time>2017-03-26T08:31:45Z</time>
      </trkpt>
      <trkpt lat="45.89687" lon="6.13427">
        <ele>445</ele>
        <time>2017-03-26T08:31:50Z</time>
      </trkpt>
      <trkpt lat="45.89699" lon="6.13412">
        <ele>445</ele>
        <time>2017-03-26T08:31:55Z</time>
      </trkpt>
      <trkpt lat="45.89712" lon="6.13397">
        <ele>445</ele>
        <time>2017-03-26T08:32:00Z</time>
      </trkpt>
      <trkpt lat="45.89724" lon="6.13382">
        <ele>445</ele>
        <time>2017-03-26T08:32:05Z</time>
      </trkpt>
      <trkpt lat="45.89737" lon="6.13367">
        <ele>445</ele>
        <time>2017-03-26T08:32:10Z</time>
      </trkpt>
      <trkpt lat="45.89748" lon="6.13354">
        <ele>445</ele>
        <time>2017-03-26T08:32:15Z</time>
      </trkpt>
      <trkpt lat="45.8976" lon="6.13338">
        <ele>445</ele>
        <time>2017-03-26T08:32:20Z</time>
      </trkpt>
      <trkpt lat="45.8977" lon="6.13323">
        <ele>446</ele>
        <time>2017-03-26T08:32:25Z</time>
      </trkpt>
      <trkpt lat="45.89782" lon="6.13307">
        <ele>445</ele>
        <time>2017-03-26T08:32:30Z</time>
      </trkpt>
      <trkpt lat="45.89789" lon="6.13289">
        <ele>445</ele>
        <time>2017-03-26T08:32:35Z</time>
      </trkpt>
      <trkpt lat="45.89796" lon="6.1327">
        <ele>445</ele>
        <time>2017-03-26T08:32:40Z</time>
      </trkpt>
      <trkpt lat="45.89802" lon="6.13251">
        <ele>445</ele>
        <time>2017-03-26T08:32:45Z</time>
      </trkpt>
      <trkpt lat="45.89808" lon="6.1323">
        <ele>445</ele>
        <time>2017-03-26T08:32:50Z</time>
      </trkpt>
      <trkpt lat="45.89813" lon="6.13208">
        <ele>444</ele>
        <time>2017-03-26T08:32:55Z</time>
      </trkpt>
      <trkpt lat="45.89816" lon="6.13185">
        <ele>444</ele>
        <time>2017-03-26T08:33:00Z</time>
      </trkpt>
      <trkpt lat="45.89816" lon="6.13164">
        <ele>444</ele>
        <time>2017-03-26T08:33:05Z</time>
      </trkpt>
      <trkpt lat="45.89815" lon="6.13142">
        <ele>444</ele>
        <time>2017-03-26T08:33:10Z</time>
      </trkpt>
      <trkpt lat="45.89815" lon="6.13119">
        <ele>444</ele>
        <time>2017-03-26T08:33:15Z</time>
      </trkpt>
      <trkpt lat="45.89816" lon="6.13098">
        <ele>444</ele>
        <time>2017-03-26T08:33:20Z</time>
      </trkpt>
      <trkpt lat="45.89816" lon="6.13076">
        <ele>444</ele>
        <time>2017-03-26T08:33:25Z</time>
      </trkpt>
      <trkpt lat="45.89816" lon="6.13053">
        <ele>444</ele>
        <time>2017-03-26T08:33:30Z</time>
      </trkpt>
      <trkpt lat="45.89818" lon="6.1303">
        <ele>444</ele>
        <time>2017-03-26T08:33:35Z</time>
      </trkpt>
      <trkpt lat="45.89819" lon="6.13008">
        <ele>444</ele>
        <time>2017-03-26T08:33:40Z</time>
      </trkpt>
      <trkpt lat="45.89818" lon="6.12986">
        <ele>444</ele>
        <time>2017-03-26T08:33:45Z</time>
      </trkpt>
      <trkpt lat="45.89818" lon="6.12966">
        <ele>444</ele>
        <time>2017-03-26T08:33:50Z</time>
      </trkpt>
      <trkpt lat="45.89817" lon="6.12944">
        <ele>444</ele>
        <time>2017-03-26T08:33:55Z</time>
      </trkpt>
      <trkpt lat="45.89818" lon="6.12922">
        <ele>444</ele>
        <time>2017-03-26T08:34:00Z</time>
      </trkpt>
      <trkpt lat="45.89824" lon="6.12904">
        <ele>444</ele>
        <time>2017-03-26T08:34:05Z</time>
      </trkpt>
      <trkpt lat="45.8984" lon="6.12905">
        <ele>444</ele>
        <time>2017-03-26T08:34:10Z</time>
      </trkpt>
      <trkpt lat="45.89853" lon="6.12905">
        <ele>443</ele>
        <time>2017-03-26T08:34:15Z</time>
      </trkpt>
      <trkpt lat="45.89868" lon="6.12902">
        <ele>443</ele>
        <time>2017-03-26T08:34:20Z</time>
      </trkpt>
      <trkpt lat="45.89882" lon="6.12899">
        <ele>443</ele>
        <time>2017-03-26T08:34:25Z</time>
      </trkpt>
      <trkpt lat="45.89897" lon="6.12896">
        <ele>443</ele>
        <time>2017-03-26T08:34:30Z</time>
      </trkpt>
      <trkpt lat="45.89911" lon="6.12892">
        <ele>443</ele>
        <time>2017-03-26T08:34:35Z</time>
      </trkpt>
      <trkpt lat="45.89924" lon="6.12888">
        <ele>443</ele>
        <time>2017-03-26T08:34:40Z</time>
      </trkpt>
      <trkpt lat="45.89939" lon="6.12886">
        <ele>443</ele>
        <time>2017-03-26T08:34:45Z</time>
      </trkpt>
      <trkpt lat="45.89952" lon="6.12883">
        <ele>443</ele>
        <time>2017-03-26T08:34:50Z</time>
      </trkpt>
      <trkpt lat="45.89969" lon="6.12887">
        <ele>443</ele>
        <time>2017-03-26T08:34:55Z</time>
      </trkpt>
      <trkpt lat="45.89985" lon="6.12889">
        <ele>443</ele>
        <time>2017-03-26T08:35:00Z</time>
      </trkpt>
      <trkpt lat="45.90003" lon="6.12889">
        <ele>444</ele>
        <time>2017-03-26T08:35:05Z</time>
      </trkpt>
      <trkpt lat="45.90015" lon="6.12872">
        <ele>444</ele>
        <time>2017-03-26T08:35:10Z</time>
      </trkpt>
      <trkpt lat="45.90022" lon="6.12851">
        <ele>443</ele>
        <time>2017-03-26T08:35:15Z</time>
      </trkpt>
      <trkpt lat="45.90028" lon="6.12831">
        <ele>443</ele>
        <time>2017-03-26T08:35:20Z</time>
      </trkpt>
      <trkpt lat="45.90037" lon="6.12812">
        <ele>444</ele>
        <time>2017-03-26T08:35:25Z</time>
      </trkpt>
      <trkpt lat="45.90046" lon="6.128">
        <ele>444</ele>
        <time>2017-03-26T08:35:30Z</time>
      </trkpt>
      <trkpt lat="45.90058" lon="6.1279">
        <ele>444</ele>
        <time>2017-03-26T08:35:35Z</time>
      </trkpt>
      <trkpt lat="45.90069" lon="6.12781">
        <ele>444</ele>
        <time>2017-03-26T08:35:40Z</time>
      </trkpt>
      <trkpt lat="45.90081" lon="6.1277">
        <ele>445</ele>
        <time>2017-03-26T08:35:45Z</time>
      </trkpt>
      <trkpt lat="45.90094" lon="6.12758">
        <ele>445</ele>
        <time>2017-03-26T08:35:50Z</time>
      </trkpt>
      <trkpt lat="45.90112" lon="6.12766">
        <ele>445</ele>
        <time>2017-03-26T08:35:55Z</time>
      </trkpt>
      <trkpt lat="45.9012" lon="6.12788">
        <ele>445</ele>
        <time>2017-03-26T08:36:00Z</time>
      </trkpt>
      <trkpt lat="45.90127" lon="6.1281">
        <ele>446</ele>
        <time>2017-03-26T08:36:05Z</time>
      </trkpt>
      <trkpt lat="45.90132" lon="6.12833">
        <ele>446</ele>
        <time>2017-03-26T08:36:10Z</time>
      </trkpt>
      <trkpt lat="45.90139" lon="6.12857">
        <ele>446</ele>
        <time>2017-03-26T08:36:15Z</time>
      </trkpt>
      <trkpt lat="45.90145" lon="6.12878">
        <ele>446</ele>
        <time>2017-03-26T08:36:20Z</time>
      </trkpt>
      <trkpt lat="45.90152" lon="6.129">
        <ele>446</ele>
        <time>2017-03-26T08:36:25Z</time>
      </trkpt>
      <trkpt lat="45.90155" lon="6.12922">
        <ele>446</ele>
        <time>2017-03-26T08:36:30Z</time>
      </trkpt>
      <trkpt lat="45.90158" lon="6.12944">
        <ele>446</ele>
        <time>2017-03-26T08:36:35Z</time>
      </trkpt>
      <trkpt lat="45.90163" lon="6.12966">
        <ele>446</ele>
        <time>2017-03-26T08:36:40Z</time>
      </trkpt>
      <trkpt lat="45.90169" lon="6.12988">
        <ele>446</ele>
        <time>2017-03-26T08:36:45Z</time>
      </trkpt>
      <trkpt lat="45.90174" lon="6.13009">
        <ele>446</ele>
        <time>2017-03-26T08:36:50Z</time>
      </trkpt>
      <trkpt lat="45.90181" lon="6.1303">
        <ele>446</ele>
        <time>2017-03-26T08:36:55Z</time>
      </trkpt>
      <trkpt lat="45.90187" lon="6.13051">
        <ele>446</ele>
        <time>2017-03-26T08:37:00Z</time>
      </trkpt>
      <trkpt lat="45.90192" lon="6.1307">
        <ele>446</ele>
        <time>2017-03-26T08:37:05Z</time>
      </trkpt>
      <trkpt lat="45.90196" lon="6.1309">
        <ele>446</ele>
        <time>2017-03-26T08:37:10Z</time>
      </trkpt>
      <trkpt lat="45.90201" lon="6.13111">
        <ele>446</ele>
        <time>2017-03-26T08:37:15Z</time>
      </trkpt>
      <trkpt lat="45.90207" lon="6.13132">
        <ele>446</ele>
        <time>2017-03-26T08:37:20Z</time>
      </trkpt>
      <trkpt lat="45.90213" lon="6.13154">
        <ele>446</ele>
        <time>2017-03-26T08:37:25Z</time>
      </trkpt>
      <trkpt lat="45.9022" lon="6.13176">
        <ele>446</ele>
        <time>2017-03-26T08:37:30Z</time>
      </trkpt>
      <trkpt lat="45.90228" lon="6.13197">
        <ele>446</ele>
        <time>2017-03-26T08:37:35Z</time>
      </trkpt>
      <trkpt lat="45.90218" lon="6.13214">
        <ele>446</ele>
        <time>2017-03-26T08:37:40Z</time>
      </trkpt>
      <trkpt lat="45.90203" lon="6.13224">
        <ele>446</ele>
        <time>2017-03-26T08:37:45Z</time>
      </trkpt>
      <trkpt lat="45.90188" lon="6.13234">
        <ele>446</ele>
        <time>2017-03-26T08:37:50Z</time>
      </trkpt>
      <trkpt lat="45.90174" lon="6.13244">
        <ele>446</ele>
        <time>2017-03-26T08:37:55Z</time>
      </trkpt>
      <trkpt lat="45.90159" lon="6.13253">
        <ele>446</ele>
        <time>2017-03-26T08:38:00Z</time>
      </trkpt>
      <trkpt lat="45.90143" lon="6.1326">
        <ele>446</ele>
        <time>2017-03-26T08:38:05Z</time>
      </trkpt>
      <trkpt lat="45.90134" lon="6.13275">
        <ele>446</ele>
        <time>2017-03-26T08:38:10Z</time>
      </trkpt>
      <trkpt lat="45.9014" lon="6.13296">
        <ele>446</ele>
        <time>2017-03-26T08:38:15Z</time>
      </trkpt>
      <trkpt lat="45.90148" lon="6.13316">
        <ele>446</ele>
        <time>2017-03-26T08:38:20Z</time>
      </trkpt>
      <trkpt lat="45.90155" lon="6.13336">
        <ele>446</ele>
        <time>2017-03-26T08:38:25Z</time>
      </trkpt>
      <trkpt lat="45.9016" lon="6.13357">
        <ele>445</ele>
        <time>2017-03-26T08:38:30Z</time>
      </trkpt>
      <trkpt lat="45.90167" lon="6.13378">
        <ele>445</ele>
        <time>2017-03-26T08:38:35Z</time>
      </trkpt>
      <trkpt lat="45.90173" lon="6.13399">
        <ele>445</ele>
        <time>2017-03-26T08:38:40Z</time>
      </trkpt>
      <trkpt lat="45.90181" lon="6.13418">
        <ele>445</ele>
        <time>2017-03-26T08:38:45Z</time>
      </trkpt>
      <trkpt lat="45.90188" lon="6.13437">
        <ele>445</ele>
        <time>2017-03-26T08:38:50Z</time>
      </trkpt>
      <trkpt lat="45.90196" lon="6.13453">
        <ele>446</ele>
        <time>2017-03-26T08:38:55Z</time>
      </trkpt>
      <trkpt lat="45.9021" lon="6.13469">
        <ele>446</ele>
        <time>2017-03-26T08:39:00Z</time>
      </trkpt>
      <trkpt lat="45.90223" lon="6.13481">
        <ele>446</ele>
        <time>2017-03-26T08:39:05Z</time>
      </trkpt>
      <trkpt lat="45.90238" lon="6.1349">
        <ele>446</ele>
        <time>2017-03-26T08:39:10Z</time>
      </trkpt>
      <trkpt lat="45.90254" lon="6.13497">
        <ele>446</ele>
        <time>2017-03-26T08:39:15Z</time>
      </trkpt>
      <trkpt lat="45.90267" lon="6.13506">
        <ele>446</ele>
        <time>2017-03-26T08:39:20Z</time>
      </trkpt>
      <trkpt lat="45.9028" lon="6.13518">
        <ele>446</ele>
        <time>2017-03-26T08:39:25Z</time>
      </trkpt>
      <trkpt lat="45.90293" lon="6.13532">
        <ele>446</ele>
        <time>2017-03-26T08:39:30Z</time>
      </trkpt>
      <trkpt lat="45.90305" lon="6.13547">
        <ele>446</ele>
        <time>2017-03-26T08:39:35Z</time>
      </trkpt>
      <trkpt lat="45.90316" lon="6.13565">
        <ele>446</ele>
        <time>2017-03-26T08:39:40Z</time>
      </trkpt>
      <trkpt lat="45.90328" lon="6.13582">
        <ele>446</ele>
        <time>2017-03-26T08:39:45Z</time>
      </trkpt>
      <trkpt lat="45.9034" lon="6.13594">
        <ele>446</ele>
        <time>2017-03-26T08:39:50Z</time>
      </trkpt>
      <trkpt lat="45.90347" lon="6.13613">
        <ele>446</ele>
        <time>2017-03-26T08:39:55Z</time>
      </trkpt>
      <trkpt lat="45.90353" lon="6.13632">
        <ele>445</ele>
        <time>2017-03-26T08:40:00Z</time>
      </trkpt>
      <trkpt lat="45.90356" lon="6.13654">
        <ele>445</ele>
        <time>2017-03-26T08:40:05Z</time>
      </trkpt>
      <trkpt lat="45.90361" lon="6.13674">
        <ele>445</ele>
        <time>2017-03-26T08:40:10Z</time>
      </trkpt>
      <trkpt lat="45.90367" lon="6.13694">
        <ele>445</ele>
        <time>2017-03-26T08:40:15Z</time>
      </trkpt>
      <trkpt lat="45.90373" lon="6.13714">
        <ele>445</ele>
        <time>2017-03-26T08:40:20Z</time>
      </trkpt>
      <trkpt lat="45.90378" lon="6.13736">
        <ele>445</ele>
        <time>2017-03-26T08:40:25Z</time>
      </trkpt>
      <trkpt lat="45.90383" lon="6.13758">
        <ele>445</ele>
        <time>2017-03-26T08:40:30Z</time>
      </trkpt>
      <trkpt lat="45.90388" lon="6.13778">
        <ele>445</ele>
        <time>2017-03-26T08:40:35Z</time>
      </trkpt>
      <trkpt lat="45.90395" lon="6.13798">
        <ele>445</ele>
        <time>2017-03-26T08:40:40Z</time>
      </trkpt>
      <trkpt lat="45.90401" lon="6.1382">
        <ele>445</ele>
        <time>2017-03-26T08:40:45Z</time>
      </trkpt>
      <trkpt lat="45.90407" lon="6.13842">
        <ele>445</ele>
        <time>2017-03-26T08:40:50Z</time>
      </trkpt>
      <trkpt lat="45.90413" lon="6.13863">
        <ele>445</ele>
        <time>2017-03-26T08:40:55Z</time>
      </trkpt>
      <trkpt lat="45.9042" lon="6.13884">
        <ele>445</ele>
        <time>2017-03-26T08:41:00Z</time>
      </trkpt>
      <trkpt lat="45.90426" lon="6.13905">
        <ele>445</ele>
        <time>2017-03-26T08:41:05Z</time>
      </trkpt>
      <trkpt lat="45.90431" lon="6.13927">
        <ele>445</ele>
        <time>2017-03-26T08:41:10Z</time>
      </trkpt>
      <trkpt lat="45.90436" lon="6.13948">
        <ele>445</ele>
        <time>2017-03-26T08:41:15Z</time>
      </trkpt>
      <trkpt lat="45.90441" lon="6.13969">
        <ele>445</ele>
        <time>2017-03-26T08:41:20Z</time>
      </trkpt>
      <trkpt lat="45.90448" lon="6.13988">
        <ele>445</ele>
        <time>2017-03-26T08:41:25Z</time>
      </trkpt>
      <trkpt lat="45.90453" lon="6.1401">
        <ele>445</ele>
        <time>2017-03-26T08:41:30Z</time>
      </trkpt>
      <trkpt lat="45.90458" lon="6.14032">
        <ele>445</ele>
        <time>2017-03-26T08:41:35Z</time>
      </trkpt>
      <trkpt lat="45.90466" lon="6.14052">
        <ele>445</ele>
        <time>2017-03-26T08:41:40Z</time>
      </trkpt>
      <trkpt lat="45.90459" lon="6.14069">
        <ele>445</ele>
        <time>2017-03-26T08:41:45Z</time>
      </trkpt>
      <trkpt lat="45.9044" lon="6.14077">
        <ele>445</ele>
        <time>2017-03-26T08:41:50Z</time>
      </trkpt>
      <trkpt lat="45.90425" lon="6.14084">
        <ele>445</ele>
        <time>2017-03-26T08:41:55Z</time>
      </trkpt>
      <trkpt lat="45.90409" lon="6.14088">
        <ele>445</ele>
        <time>2017-03-26T08:42:00Z</time>
      </trkpt>
      <trkpt lat="45.90389" lon="6.14096">
        <ele>445</ele>
        <time>2017-03-26T08:42:05Z</time>
      </trkpt>
      <trkpt lat="45.90369" lon="6.14103">
        <ele>445</ele>
        <time>2017-03-26T08:42:10Z</time>
      </trkpt>
      <trkpt lat="45.90351" lon="6.1411">
        <ele>445</ele>
        <time>2017-03-26T08:42:15Z</time>
      </trkpt>
      <trkpt lat="45.90337" lon="6.14121">
        <ele>445</ele>
        <time>2017-03-26T08:42:20Z</time>
      </trkpt>
      <trkpt lat="45.90326" lon="6.14137">
        <ele>445</ele>
        <time>2017-03-26T08:42:25Z</time>
      </trkpt>
      <trkpt lat="45.90318" lon="6.14154">
        <ele>445</ele>
        <time>2017-03-26T08:42:30Z</time>
      </trkpt>
      <trkpt lat="45.90313" lon="6.14177">
        <ele>445</ele>
        <time>2017-03-26T08:42:35Z</time>
      </trkpt>
      <trkpt lat="45.90309" lon="6.142">
        <ele>445</ele>
        <time>2017-03-26T08:42:40Z</time>
      </trkpt>
      <trkpt lat="45.90305" lon="6.14224">
        <ele>445</ele>
        <time>2017-03-26T08:42:45Z</time>
      </trkpt>
      <trkpt lat="45.90294" lon="6.14241">
        <ele>445</ele>
        <time>2017-03-26T08:42:50Z</time>
      </trkpt>
      <trkpt lat="45.90278" lon="6.14248">
        <ele>445</ele>
        <time>2017-03-26T08:42:55Z</time>
      </trkpt>
      <trkpt lat="45.90265" lon="6.1426">
        <ele>445</ele>
        <time>2017-03-26T08:43:00Z</time>
      </trkpt>
      <trkpt lat="45.90253" lon="6.14275">
        <ele>445</ele>
        <time>2017-03-26T08:43:05Z</time>
      </trkpt>
      <trkpt lat="45.90248" lon="6.14297">
        <ele>445</ele>
        <time>2017-03-26T08:43:10Z</time>
      </trkpt>
      <trkpt lat="45.90247" lon="6.1432">
        <ele>445</ele>
        <time>2017-03-26T08:43:15Z</time>
      </trkpt>
      <trkpt lat="45.9025" lon="6.14342">
        <ele>445</ele>
        <time>2017-03-26T08:43:20Z</time>
      </trkpt>
      <trkpt lat="45.90261" lon="6.14356">
        <ele>445</ele>
        <time>2017-03-26T08:43:25Z</time>
      </trkpt>
      <trkpt lat="45.90269" lon="6.14362">
        <ele>445</ele>
        <time>2017-03-26T08:43:30Z</time>
      </trkpt>
      <trkpt lat="45.90275" lon="6.14375">
        <ele>445</ele>
        <time>2017-03-26T08:43:35Z</time>
      </trkpt>
      <trkpt lat="45.90274" lon="6.14398">
        <ele>445</ele>
        <time>2017-03-26T08:43:40Z</time>
      </trkpt>
      <trkpt lat="45.90264" lon="6.14412">
        <ele>445</ele>
        <time>2017-03-26T08:43:45Z</time>
      </trkpt>
      <trkpt lat="45.90252" lon="6.1442">
        <ele>445</ele>
        <time>2017-03-26T08:43:50Z</time>
      </trkpt>
      <trkpt lat="45.90241" lon="6.14429">
        <ele>445</ele>
        <time>2017-03-26T08:43:55Z</time>
      </trkpt>
      <trkpt lat="45.90235" lon="6.14447">
        <ele>445</ele>
        <time>2017-03-26T08:44:00Z</time>
      </trkpt>
      <trkpt lat="45.90239" lon="6.14469">
        <ele>445</ele>
        <time>2017-03-26T08:44:05Z</time>
      </trkpt>
      <trkpt lat="45.9025" lon="6.14487">
        <ele>445</ele>
        <time>2017-03-26T08:44:10Z</time>
      </trkpt>
      <trkpt lat="45.90261" lon="6.145">
        <ele>445</ele>
        <time>2017-03-26T08:44:15Z</time>
      </trkpt>
      <trkpt lat="45.90274" lon="6.14506">
        <ele>445</ele>
        <time>2017-03-26T08:44:20Z</time>
      </trkpt>
      <trkpt lat="45.90287" lon="6.14511">
        <ele>445</ele>
        <time>2017-03-26T08:44:25Z</time>
      </trkpt>
      <trkpt lat="45.903" lon="6.1452">
        <ele>445</ele>
        <time>2017-03-26T08:44:30Z</time>
      </trkpt>
      <trkpt lat="45.90312" lon="6.14536">
        <ele>445</ele>
        <time>2017-03-26T08:44:35Z</time>
      </trkpt>
      <trkpt lat="45.90325" lon="6.1455">
        <ele>445</ele>
        <time>2017-03-26T08:44:40Z</time>
      </trkpt>
      <trkpt lat="45.90337" lon="6.14563">
        <ele>445</ele>
        <time>2017-03-26T08:44:45Z</time>
      </trkpt>
      <trkpt lat="45.9035" lon="6.14578">
        <ele>445</ele>
        <time>2017-03-26T08:44:50Z</time>
      </trkpt>
      <trkpt lat="45.90363" lon="6.14588">
        <ele>445</ele>
        <time>2017-03-26T08:44:55Z</time>
      </trkpt>
      <trkpt lat="45.90378" lon="6.14594">
        <ele>445</ele>
        <time>2017-03-26T08:45:00Z</time>
      </trkpt>
      <trkpt lat="45.90388" lon="6.14609">
        <ele>445</ele>
        <time>2017-03-26T08:45:05Z</time>
      </trkpt>
      <trkpt lat="45.90398" lon="6.1462">
        <ele>446</ele>
        <time>2017-03-26T08:45:10Z</time>
      </trkpt>
      <trkpt lat="45.90409" lon="6.14628">
        <ele>446</ele>
        <time>2017-03-26T08:45:15Z</time>
      </trkpt>
      <trkpt lat="45.90423" lon="6.14645">
        <ele>446</ele>
        <time>2017-03-26T08:45:20Z</time>
      </trkpt>
      <trkpt lat="45.9043" lon="6.14668">
        <ele>446</ele>
        <time>2017-03-26T08:45:25Z</time>
      </trkpt>
      <trkpt lat="45.90433" lon="6.14693">
        <ele>446</ele>
        <time>2017-03-26T08:45:30Z</time>
      </trkpt>
      <trkpt lat="45.90434" lon="6.14716">
        <ele>446</ele>
        <time>2017-03-26T08:45:35Z</time>
      </trkpt>
      <trkpt lat="45.90437" lon="6.14739">
        <ele>445</ele>
        <time>2017-03-26T08:45:40Z</time>
      </trkpt>
      <trkpt lat="45.90442" lon="6.14762">
        <ele>445</ele>
        <time>2017-03-26T08:45:45Z</time>
      </trkpt>
      <trkpt lat="45.90449" lon="6.14786">
        <ele>445</ele>
        <time>2017-03-26T08:45:50Z</time>
      </trkpt>
      <trkpt lat="45.90453" lon="6.1481">
        <ele>445</ele>
        <time>2017-03-26T08:45:55Z</time>
      </trkpt>
      <trkpt lat="45.90458" lon="6.14832">
        <ele>445</ele>
        <time>2017-03-26T08:46:00Z</time>
      </trkpt>
      <trkpt lat="45.90463" lon="6.14855">
        <ele>445</ele>
        <time>2017-03-26T08:46:05Z</time>
      </trkpt>
      <trkpt lat="45.90465" lon="6.14879">
        <ele>445</ele>
        <time>2017-03-26T08:46:10Z</time>
      </trkpt>
      <trkpt lat="45.90467" lon="6.14902">
        <ele>445</ele>
        <time>2017-03-26T08:46:15Z</time>
      </trkpt>
      <trkpt lat="45.90467" lon="6.14924">
        <ele>445</ele>
        <time>2017-03-26T08:46:20Z</time>
      </trkpt>
      <trkpt lat="45.90471" lon="6.14946">
        <ele>445</ele>
        <time>2017-03-26T08:46:25Z</time>
      </trkpt>
      <trkpt lat="45.90478" lon="6.14968">
        <ele>445</ele>
        <time>2017-03-26T08:46:30Z</time>
      </trkpt>
      <trkpt lat="45.90481" lon="6.14984">
        <ele>445</ele>
        <time>2017-03-26T08:46:35Z</time>
      </trkpt>
    </trkseg>
  </trk>
</gpx>